Darstellungsparameter: Aktuell verwendete Einstellungen:
Skalierung der Graphiken ... ?
xyx+y,   Skalierungsfaktor:      Skalierung: Modus: x, Faktor: 1
Darstellungszeitraum ... ?
Vom - - bis: - -   Zeitraum: 22.02.2018 - 26.02.2018
Min/Max/Avg-Anzeige ... ?
Zeige MMA aktuell
Zeige MMA Monat
Zeige MMA alles
Zeige --A aktuell
Zeige --A Monat
Zeige --A alles
Keine MMA-Anzeige
MMA:
Average (ber die Originaldaten)
MMA-Basis: 22.02.2018 - 26.02.2018
Quicknavigation für Darstellung... ?
Tage:      1T, 2T, 3T, 5T -1T -2T -3T -5T +1T +2T +3T +5T
Wochen: 1W, 2W, 3W -1W -2W -3W +1W +2W +3W
Monate: 1M, 3M, 6M -1M -3M -6M +1M +3M +6M
Jahre:    1J, 3J, 5J, 10J -1J -3J -5J -10J +1J +3J +5J +10J
Nutze für die Darstellung ... ?
Originaldaten oder Mittelwerte auf ...
Stundenbasis Tagesbasis Wochenbasis
Monatsbasis Jahresbasis      Datenbasis: Original-Daten
Darstellen als:
Statistik (Auto) Statistik J:M      Darstellung:
Zur Graphik,    zurück zur Übersicht aller Sensoren.
 
Tabellarische Datenbersicht: ?
 
Sensor: Nr:Datum:Temp:Abs-Feuchte:Windchill:Wind:
Aussen-T/F 1 22-02-2018 00:00:00 -0.6 C 3.67 g/m*3 -0.6 C 0 km/h
2 22-02-2018 00:05:00 -0.7 C 3.65 g/m*3 -0.7 C 0 km/h
3 22-02-2018 00:10:00 -0.8 C 3.71 g/m*3 -0.8 C 0 km/h
4 22-02-2018 00:15:00 -1 C 3.66 g/m*3 -1 C 1.6 km/h
5 22-02-2018 00:20:00 -1.1 C 3.68 g/m*3 -1.1 C 1.6 km/h
6 22-02-2018 00:25:00 -1.2 C 3.66 g/m*3 -1.2 C 3.2 km/h
7 22-02-2018 00:30:00 -1.3 C 3.67 g/m*3 -1.3 C 1.6 km/h
8 22-02-2018 00:35:00 -1.3 C 3.67 g/m*3 -1.3 C 1.6 km/h
9 22-02-2018 00:40:00 -1.4 C 3.69 g/m*3 -1.4 C 1.6 km/h
10 22-02-2018 00:45:00 -1.4 C 3.69 g/m*3 -1.4 C 0 km/h
11 22-02-2018 00:50:00 -1.5 C 3.62 g/m*3 -1.5 C 0 km/h
12 22-02-2018 00:55:00 -1.5 C 3.67 g/m*3 -1.5 C 3.2 km/h
13 22-02-2018 01:00:00 -1.5 C 3.62 g/m*3 -1.5 C 0 km/h
14 22-02-2018 01:05:00 -1.5 C 3.67 g/m*3 -1.5 C 3.2 km/h
15 22-02-2018 01:10:00 -1.5 C 3.67 g/m*3 -1.5 C 1.6 km/h
16 22-02-2018 01:15:00 -1.5 C 3.67 g/m*3 -1.5 C 0 km/h
17 22-02-2018 01:20:00 -1.6 C 3.64 g/m*3 -1.6 C 0 km/h
18 22-02-2018 01:25:00 -1.6 C 3.64 g/m*3 -1.6 C 0 km/h
19 22-02-2018 01:30:00 -1.7 C 3.66 g/m*3 -1.7 C 0 km/h
20 22-02-2018 01:35:00 -1.7 C 3.66 g/m*3 -1.7 C 0 km/h
21 22-02-2018 01:40:00 -1.7 C 3.66 g/m*3 -1.7 C 0 km/h
22 22-02-2018 01:45:00 -1.7 C 3.66 g/m*3 -1.7 C 0 km/h
23 22-02-2018 01:50:00 -1.8 C 3.63 g/m*3 -1.8 C 0 km/h
24 22-02-2018 01:55:00 -1.8 C 3.63 g/m*3 -1.8 C 0 km/h
25 22-02-2018 02:00:00 -1.9 C 3.61 g/m*3 -1.9 C 0 km/h
Sensor: Nr:Datum:Temp:Abs-Feuchte:Windchill:Wind:
Aussen-T/F 26 22-02-2018 02:05:00 -1.9 C 3.61 g/m*3 -1.9 C 0 km/h
27 22-02-2018 02:10:00 -1.9 C 3.61 g/m*3 -1.9 C 0 km/h
28 22-02-2018 02:15:00 -1.9 C 3.61 g/m*3 -1.9 C 0 km/h
29 22-02-2018 02:20:00 -1.9 C 3.61 g/m*3 -1.9 C 0 km/h
30 22-02-2018 02:25:00 -1.9 C 3.61 g/m*3 -1.9 C 0 km/h
31 22-02-2018 02:30:00 -2 C 3.63 g/m*3 -2 C 0 km/h
32 22-02-2018 02:35:00 -1.9 C 3.65 g/m*3 -1.9 C 0 km/h
33 22-02-2018 02:40:00 -1.9 C 3.65 g/m*3 -1.9 C 0 km/h
34 22-02-2018 02:45:00 -1.9 C 3.65 g/m*3 -1.9 C 0 km/h
35 22-02-2018 02:50:00 -1.9 C 3.65 g/m*3 -1.9 C 0 km/h
36 22-02-2018 02:55:00 -1.9 C 3.65 g/m*3 -1.9 C 0 km/h
37 22-02-2018 03:00:00 -1.9 C 3.65 g/m*3 -1.9 C 0 km/h
38 22-02-2018 03:05:00 -1.9 C 3.65 g/m*3 -1.9 C 0 km/h
39 22-02-2018 03:10:00 -1.9 C 3.65 g/m*3 -1.9 C 0 km/h
40 22-02-2018 03:15:00 -1.9 C 3.65 g/m*3 -1.9 C 0 km/h
41 22-02-2018 03:20:00 -1.9 C 3.65 g/m*3 -1.9 C 0 km/h
42 22-02-2018 03:25:00 -1.9 C 3.69 g/m*3 -1.9 C 0 km/h
43 22-02-2018 03:30:00 -1.9 C 3.69 g/m*3 -1.9 C 0 km/h
44 22-02-2018 03:35:00 -2 C 3.63 g/m*3 -2 C 3.2 km/h
45 22-02-2018 03:40:00 -2.1 C 3.6 g/m*3 -2.1 C 1.6 km/h
46 22-02-2018 03:45:00 -2.1 C 3.64 g/m*3 -2.1 C 0 km/h
47 22-02-2018 03:50:00 -2.1 C 3.64 g/m*3 -2.1 C 3.2 km/h
48 22-02-2018 03:55:00 -2.1 C 3.64 g/m*3 -2.1 C 0 km/h
49 22-02-2018 04:00:00 -2.1 C 3.64 g/m*3 -2.1 C 1.6 km/h
50 22-02-2018 04:05:00 -2.1 C 3.64 g/m*3 -2.1 C 3.2 km/h
Sensor: Nr:Datum:Temp:Abs-Feuchte:Windchill:Wind:
Aussen-T/F 51 22-02-2018 04:10:00 -2.2 C 3.62 g/m*3 -2.2 C 1.6 km/h
52 22-02-2018 04:15:00 -2.2 C 3.62 g/m*3 -2.2 C 1.6 km/h
53 22-02-2018 04:20:00 -2.2 C 3.62 g/m*3 -2.2 C 0 km/h
54 22-02-2018 04:25:00 -2.1 C 3.64 g/m*3 -2.1 C 0 km/h
55 22-02-2018 04:30:00 -2.1 C 3.64 g/m*3 -2.1 C 0 km/h
56 22-02-2018 04:35:00 -2.1 C 3.64 g/m*3 -2.1 C 1.6 km/h
57 22-02-2018 04:40:00 -2.1 C 3.64 g/m*3 -2.1 C 1.6 km/h
58 22-02-2018 04:45:00 -2.1 C 3.64 g/m*3 -2.1 C 0 km/h
59 22-02-2018 04:50:00 -2.1 C 3.64 g/m*3 -2.1 C 3.2 km/h
60 22-02-2018 04:55:00 -2.1 C 3.64 g/m*3 -2.1 C 1.6 km/h
61 22-02-2018 05:00:00 -2 C 3.71 g/m*3 -2 C 1.6 km/h
62 22-02-2018 05:05:00 -2 C 3.67 g/m*3 -2 C 0 km/h
63 22-02-2018 05:10:00 -2 C 3.67 g/m*3 -2 C 0 km/h
64 22-02-2018 05:15:00 -2.1 C 3.64 g/m*3 -2.1 C 0 km/h
65 22-02-2018 05:20:00 -2.1 C 3.68 g/m*3 -2.1 C 1.6 km/h
66 22-02-2018 05:25:00 -2 C 3.71 g/m*3 -2 C 3.2 km/h
67 22-02-2018 05:30:00 -2 C 3.71 g/m*3 -2 C 0 km/h
68 22-02-2018 05:35:00 -2 C 3.71 g/m*3 -2 C 1.6 km/h
69 22-02-2018 05:40:00 -2 C 3.67 g/m*3 -2 C 1.6 km/h
70 22-02-2018 05:45:00 -2 C 3.67 g/m*3 -2 C 1.6 km/h
71 22-02-2018 05:50:00 -2 C 3.67 g/m*3 -2 C 1.6 km/h
72 22-02-2018 05:55:00 -2.1 C 3.64 g/m*3 -2.1 C 1.6 km/h
73 22-02-2018 06:00:00 -2.1 C 3.68 g/m*3 -2.1 C 3.2 km/h
74 22-02-2018 06:05:00 -2.1 C 3.68 g/m*3 -2.1 C 0 km/h
75 22-02-2018 06:10:00 -2.1 C 3.68 g/m*3 -2.1 C 0 km/h
Sensor: Nr:Datum:Temp:Abs-Feuchte:Windchill:Wind:
Aussen-T/F 76 22-02-2018 06:15:00 -2.1 C 3.68 g/m*3 -2.1 C 0 km/h
77 22-02-2018 06:20:00 -2.2 C 3.66 g/m*3 -2.2 C 1.6 km/h
78 22-02-2018 06:25:00 -2.2 C 3.66 g/m*3 -2.2 C 0 km/h
79 22-02-2018 06:30:00 -2.2 C 3.66 g/m*3 -2.2 C 0 km/h
80 22-02-2018 06:35:00 -2.2 C 3.66 g/m*3 -2.2 C 3.2 km/h
81 22-02-2018 06:40:00 -2.2 C 3.66 g/m*3 -2.2 C 0 km/h
82 22-02-2018 06:45:00 -2.2 C 3.66 g/m*3 -2.2 C 1.6 km/h
83 22-02-2018 06:50:00 -2.2 C 3.66 g/m*3 -2.2 C 1.6 km/h
84 22-02-2018 06:55:00 -2.2 C 3.66 g/m*3 -2.2 C 1.6 km/h
85 22-02-2018 07:00:00 -2.2 C 3.66 g/m*3 -2.2 C 3.2 km/h
86 22-02-2018 07:05:00 -2.2 C 3.66 g/m*3 -2.2 C 0 km/h
87 22-02-2018 07:10:00 -2.3 C 3.63 g/m*3 -2.3 C 1.6 km/h
88 22-02-2018 07:15:00 -2.3 C 3.63 g/m*3 -2.3 C 1.6 km/h
89 22-02-2018 07:20:00 -2.3 C 3.63 g/m*3 -2.3 C 1.6 km/h
90 22-02-2018 07:25:00 -2.3 C 3.63 g/m*3 -2.3 C 4.8 km/h
91 22-02-2018 07:30:00 -2.3 C 3.63 g/m*3 -2.3 C 1.6 km/h
92 22-02-2018 07:35:00 -2.3 C 3.63 g/m*3 -2.3 C 0 km/h
93 22-02-2018 07:40:00 -2.3 C 3.63 g/m*3 -2.3 C 0 km/h
94 22-02-2018 07:45:00 -2.2 C 3.66 g/m*3 -2.2 C 1.6 km/h
95 22-02-2018 07:50:00 -2.2 C 3.66 g/m*3 -2.2 C 3.2 km/h
96 22-02-2018 07:55:00 -2.2 C 3.66 g/m*3 -2.2 C 0 km/h
97 22-02-2018 08:00:00 -2.2 C 3.62 g/m*3 -2.2 C 0 km/h
98 22-02-2018 08:05:00 -2.1 C 3.64 g/m*3 -2.1 C 1.6 km/h
99 22-02-2018 08:10:00 -2 C 3.67 g/m*3 -2 C 1.6 km/h
100 22-02-2018 08:15:00 -1.9 C 3.69 g/m*3 -1.9 C 4.8 km/h
Sensor: Nr:Datum:Temp:Abs-Feuchte:Windchill:Wind:
Aussen-T/F 101 22-02-2018 08:20:00 -1.8 C 3.72 g/m*3 -1.8 C 4.8 km/h
102 22-02-2018 08:25:00 -1.8 C 3.68 g/m*3 -1.8 C 1.6 km/h
103 22-02-2018 08:30:00 -1.8 C 3.68 g/m*3 -1.8 C 0 km/h
104 22-02-2018 08:35:00 -1.7 C 3.7 g/m*3 -1.7 C 0 km/h
105 22-02-2018 08:40:00 -1.7 C 3.7 g/m*3 -1.7 C 0 km/h
106 22-02-2018 08:45:00 -1.7 C 3.7 g/m*3 -1.7 C 1.6 km/h
107 22-02-2018 08:50:00 -1.6 C 3.73 g/m*3 -1.6 C 0 km/h
108 22-02-2018 08:55:00 -1.6 C 3.73 g/m*3 -1.6 C 1.6 km/h
109 22-02-2018 09:00:00 -1.6 C 3.73 g/m*3 -1.6 C 0 km/h
110 22-02-2018 09:05:00 -1.5 C 3.75 g/m*3 -1.5 C 1.6 km/h
111 22-02-2018 09:10:00 -1.5 C 3.75 g/m*3 -1.5 C 0 km/h
112 22-02-2018 09:15:00 -1.4 C 3.74 g/m*3 -1.4 C 4.8 km/h
113 22-02-2018 09:20:00 -1.3 C 3.72 g/m*3 -1.3 C 1.6 km/h
114 22-02-2018 09:25:00 -1.2 C 3.74 g/m*3 -1.2 C 1.6 km/h
115 22-02-2018 09:30:00 -1.1 C 3.77 g/m*3 -1.1 C 3.2 km/h
116 22-02-2018 09:35:00 -0.9 C 3.78 g/m*3 -3.83 C 8.1 km/h
117 22-02-2018 09:40:00 -0.8 C 3.8 g/m*3 -3.71 C 8.1 km/h
118 22-02-2018 09:45:00 -0.7 C 3.74 g/m*3 -2.99 C 6.4 km/h
119 22-02-2018 09:50:00 -0.4 C 3.77 g/m*3 -4.49 C 12.9 km/h
120 22-02-2018 09:55:00 -0.1 C 3.8 g/m*3 -4.12 C 12.9 km/h
121 22-02-2018 10:00:00 0 C 3.83 g/m*3 0 C 4.8 km/h
122 22-02-2018 10:05:00 0 C 3.78 g/m*3 -3.23 C 9.7 km/h
123 22-02-2018 10:10:00 0.3 C 3.76 g/m*3 -3.63 C 12.9 km/h
124 22-02-2018 10:15:00 0.4 C 3.79 g/m*3 -2.76 C 9.7 km/h
125 22-02-2018 10:20:00 0.7 C 3.76 g/m*3 -3.46 C 14.5 km/h
Sensor: Nr:Datum:Temp:Abs-Feuchte:Windchill:Wind:
Aussen-T/F 126 22-02-2018 10:25:00 0.8 C 3.74 g/m*3 -2.67 C 11.3 km/h
127 22-02-2018 10:30:00 0.9 C 3.76 g/m*3 -2.9 C 12.9 km/h
128 22-02-2018 10:35:00 1.1 C 3.76 g/m*3 -2.66 C 12.9 km/h
129 22-02-2018 10:40:00 1.1 C 3.76 g/m*3 -1.48 C 8.1 km/h
130 22-02-2018 10:45:00 1.2 C 3.74 g/m*3 -2.85 C 14.5 km/h
131 22-02-2018 10:50:00 1.2 C 3.74 g/m*3 1.2 C 4.8 km/h
132 22-02-2018 10:55:00 1.3 C 3.76 g/m*3 -0.68 C 6.4 km/h
133 22-02-2018 11:00:00 1.4 C 3.73 g/m*3 -2.29 C 12.9 km/h
134 22-02-2018 11:05:00 1.5 C 3.65 g/m*3 -1.83 C 11.3 km/h
135 22-02-2018 11:10:00 1.6 C 3.68 g/m*3 -2.89 C 17.7 km/h
136 22-02-2018 11:15:00 1.6 C 3.62 g/m*3 -1.71 C 11.3 km/h
137 22-02-2018 11:20:00 1.7 C 3.65 g/m*3 -1.59 C 11.3 km/h
138 22-02-2018 11:25:00 1.8 C 3.67 g/m*3 -1.47 C 11.3 km/h
139 22-02-2018 11:30:00 1.8 C 3.56 g/m*3 -2.38 C 16.1 km/h
140 22-02-2018 11:35:00 1.8 C 3.67 g/m*3 -2.38 C 16.1 km/h
141 22-02-2018 11:40:00 1.9 C 3.7 g/m*3 -1.68 C 12.9 km/h
142 22-02-2018 11:45:00 2 C 3.56 g/m*3 -2.62 C 19.3 km/h
143 22-02-2018 11:50:00 2 C 3.56 g/m*3 -3.24 C 24.1 km/h
144 22-02-2018 11:55:00 2.1 C 3.64 g/m*3 -3.11 C 24.1 km/h
145 22-02-2018 12:00:00 2.2 C 3.55 g/m*3 -2.37 C 19.3 km/h
146 22-02-2018 12:05:00 2.2 C 3.55 g/m*3 -2.37 C 19.3 km/h
147 22-02-2018 12:10:00 2.2 C 3.6 g/m*3 -1.62 C 14.5 km/h
148 22-02-2018 12:15:00 2.2 C 3.6 g/m*3 -2.37 C 19.3 km/h
149 22-02-2018 12:20:00 2.2 C 3.55 g/m*3 -2.14 C 17.7 km/h
150 22-02-2018 12:25:00 2.3 C 3.52 g/m*3 -2.01 C 17.7 km/h
Sensor: Nr:Datum:Temp:Abs-Feuchte:Windchill:Wind:
Aussen-T/F 151 22-02-2018 12:30:00 2.4 C 3.48 g/m*3 -2.53 C 22.5 km/h
152 22-02-2018 12:35:00 2.6 C 3.59 g/m*3 -1.39 C 16.1 km/h
153 22-02-2018 12:40:00 2.8 C 3.52 g/m*3 -1.83 C 20.9 km/h
154 22-02-2018 12:45:00 2.8 C 3.52 g/m*3 -1.14 C 16.1 km/h
155 22-02-2018 12:50:00 2.8 C 3.64 g/m*3 -1.39 C 17.7 km/h
156 22-02-2018 12:55:00 2.9 C 3.66 g/m*3 -0.14 C 11.3 km/h
157 22-02-2018 13:00:00 2.9 C 3.54 g/m*3 -2.08 C 24.1 km/h
158 22-02-2018 13:05:00 3.1 C 3.65 g/m*3 -0.22 C 12.9 km/h
159 22-02-2018 13:10:00 3.2 C 3.5 g/m*3 -0.89 C 17.7 km/h
160 22-02-2018 13:15:00 3.3 C 3.46 g/m*3 -1.57 C 24.1 km/h
161 22-02-2018 13:20:00 3.3 C 3.4 g/m*3 -1.57 C 24.1 km/h
162 22-02-2018 13:25:00 3.3 C 3.46 g/m*3 -1.57 C 24.1 km/h
163 22-02-2018 13:30:00 3.3 C 3.52 g/m*3 -2.07 C 29 km/h
164 22-02-2018 13:35:00 3.4 C 3.48 g/m*3 -0.14 C 14.5 km/h
165 22-02-2018 13:40:00 3.6 C 3.53 g/m*3 0.11 C 14.5 km/h
166 22-02-2018 13:45:00 3.8 C 3.45 g/m*3 -0.14 C 17.7 km/h
167 22-02-2018 13:50:00 3.9 C 3.41 g/m*3 -0.8 C 24.1 km/h
168 22-02-2018 13:55:00 3.8 C 3.51 g/m*3 -0.75 C 22.5 km/h
169 22-02-2018 14:00:00 3.6 C 3.47 g/m*3 -0.39 C 17.7 km/h
170 22-02-2018 14:05:00 3.3 C 3.4 g/m*3 -1.39 C 22.5 km/h
171 22-02-2018 14:10:00 3.1 C 3.41 g/m*3 -1.01 C 17.7 km/h
172 22-02-2018 14:15:00 2.9 C 3.43 g/m*3 -1.49 C 19.3 km/h
173 22-02-2018 14:20:00 2.9 C 3.43 g/m*3 -0.76 C 14.5 km/h
174 22-02-2018 14:25:00 2.9 C 3.37 g/m*3 -1.49 C 19.3 km/h
175 22-02-2018 14:30:00 3 C 3.39 g/m*3 -1.57 C 20.9 km/h
Sensor: Nr:Datum:Temp:Abs-Feuchte:Windchill:Wind:
Aussen-T/F 176 22-02-2018 14:35:00 3.1 C 3.35 g/m*3 -1.01 C 17.7 km/h
177 22-02-2018 14:40:00 3.2 C 3.31 g/m*3 -1.32 C 20.9 km/h
178 22-02-2018 14:45:00 3.2 C 3.37 g/m*3 -1.11 C 19.3 km/h
179 22-02-2018 14:50:00 3.3 C 3.4 g/m*3 -0.99 C 19.3 km/h
180 22-02-2018 14:55:00 3.4 C 3.42 g/m*3 -0.4 C 16.1 km/h
181 22-02-2018 15:00:00 3.5 C 3.38 g/m*3 -0.73 C 19.3 km/h
182 22-02-2018 15:05:00 3.6 C 3.4 g/m*3 -0.39 C 17.7 km/h
183 22-02-2018 15:10:00 3.6 C 3.34 g/m*3 -0.81 C 20.9 km/h
184 22-02-2018 15:15:00 3.5 C 3.32 g/m*3 -1.49 C 25.7 km/h
185 22-02-2018 15:20:00 3.4 C 3.36 g/m*3 -1.26 C 22.5 km/h
186 22-02-2018 15:25:00 3.3 C 3.28 g/m*3 -1.19 C 20.9 km/h
187 22-02-2018 15:30:00 3.2 C 3.19 g/m*3 -1.51 C 22.5 km/h
188 22-02-2018 15:35:00 3.2 C 3.19 g/m*3 -1.87 C 25.7 km/h
189 22-02-2018 15:40:00 3.3 C 3.22 g/m*3 -1.39 C 22.5 km/h
190 22-02-2018 15:45:00 3.3 C 3.22 g/m*3 -1.57 C 24.1 km/h
191 22-02-2018 15:50:00 3.3 C 3.22 g/m*3 -1.39 C 22.5 km/h
192 22-02-2018 15:55:00 3.4 C 3.24 g/m*3 -0.14 C 14.5 km/h
193 22-02-2018 16:00:00 3.6 C 3.28 g/m*3 -0.15 C 16.1 km/h
194 22-02-2018 16:05:00 3.6 C 3.28 g/m*3 0.7 C 11.3 km/h
195 22-02-2018 16:10:00 3.6 C 3.28 g/m*3 -0.15 C 16.1 km/h
196 22-02-2018 16:15:00 3.6 C 3.34 g/m*3 1.46 C 8.1 km/h
197 22-02-2018 16:20:00 3.6 C 3.34 g/m*3 0.7 C 11.3 km/h
198 22-02-2018 16:25:00 3.6 C 3.4 g/m*3 -0.39 C 17.7 km/h
199 22-02-2018 16:30:00 3.5 C 3.32 g/m*3 0.27 C 12.9 km/h
200 22-02-2018 16:35:00 3.5 C 3.44 g/m*3 -1.13 C 22.5 km/h
Sensor: Nr:Datum:Temp:Abs-Feuchte:Windchill:Wind:
Aussen-T/F 201 22-02-2018 16:40:00 3.4 C 3.36 g/m*3 -1.07 C 20.9 km/h
202 22-02-2018 16:45:00 3.3 C 3.34 g/m*3 0.7 C 9.7 km/h
203 22-02-2018 16:50:00 3.2 C 3.31 g/m*3 0.99 C 8.1 km/h
204 22-02-2018 16:55:00 3.2 C 3.31 g/m*3 0.99 C 8.1 km/h
205 22-02-2018 17:00:00 3.2 C 3.43 g/m*3 1.51 C 6.4 km/h
206 22-02-2018 17:05:00 3.2 C 3.43 g/m*3 -1.11 C 19.3 km/h
207 22-02-2018 17:10:00 3.2 C 3.43 g/m*3 0.58 C 9.7 km/h
208 22-02-2018 17:15:00 3.2 C 3.43 g/m*3 -0.39 C 14.5 km/h
209 22-02-2018 17:20:00 3.1 C 3.41 g/m*3 3.1 C 4.8 km/h
210 22-02-2018 17:25:00 3.1 C 3.47 g/m*3 3.1 C 1.6 km/h
211 22-02-2018 17:30:00 3.1 C 3.47 g/m*3 3.1 C 3.2 km/h
212 22-02-2018 17:35:00 2.9 C 3.37 g/m*3 -0.14 C 11.3 km/h
213 22-02-2018 17:40:00 2.8 C 3.34 g/m*3 0.1 C 9.7 km/h
214 22-02-2018 17:45:00 2.7 C 3.38 g/m*3 -1.27 C 16.1 km/h
215 22-02-2018 17:50:00 2.5 C 3.33 g/m*3 0.17 C 8.1 km/h
216 22-02-2018 17:55:00 2.3 C 3.4 g/m*3 -0.87 C 11.3 km/h
217 22-02-2018 18:00:00 2.1 C 3.36 g/m*3 -2.26 C 17.7 km/h
218 22-02-2018 18:05:00 1.8 C 3.34 g/m*3 -1.09 C 9.7 km/h
219 22-02-2018 18:10:00 1.6 C 3.35 g/m*3 -1.33 C 9.7 km/h
220 22-02-2018 18:15:00 1.4 C 3.36 g/m*3 -1.12 C 8.1 km/h
221 22-02-2018 18:20:00 1.2 C 3.37 g/m*3 -0.8 C 6.4 km/h
222 22-02-2018 18:25:00 1.1 C 3.34 g/m*3 1.1 C 0 km/h
223 22-02-2018 18:30:00 0.8 C 3.33 g/m*3 0.8 C 1.6 km/h
224 22-02-2018 18:35:00 0.7 C 3.36 g/m*3 0.7 C 0 km/h
225 22-02-2018 18:40:00 0.5 C 3.36 g/m*3 0.5 C 0 km/h
Sensor: Nr:Datum:Temp:Abs-Feuchte:Windchill:Wind:
Aussen-T/F 226 22-02-2018 18:45:00 0.3 C 3.41 g/m*3 0.3 C 0 km/h
227 22-02-2018 18:50:00 0.2 C 3.44 g/m*3 0.2 C 0 km/h
228 22-02-2018 18:55:00 -0.1 C 3.42 g/m*3 -0.1 C 0 km/h
229 22-02-2018 19:00:00 -0.2 C 3.39 g/m*3 -0.2 C 0 km/h
230 22-02-2018 19:05:00 -0.2 C 3.49 g/m*3 -0.2 C 3.2 km/h
231 22-02-2018 19:10:00 -0.3 C 3.37 g/m*3 -0.3 C 4.8 km/h
232 22-02-2018 19:15:00 -0.2 C 3.35 g/m*3 -0.2 C 3.2 km/h
233 22-02-2018 19:20:00 -0.2 C 3.44 g/m*3 -0.2 C 1.6 km/h
234 22-02-2018 19:25:00 -0.3 C 3.42 g/m*3 -0.3 C 1.6 km/h
235 22-02-2018 19:30:00 -0.5 C 3.46 g/m*3 -0.5 C 1.6 km/h
236 22-02-2018 19:35:00 -0.6 C 3.49 g/m*3 -0.6 C 1.6 km/h
237 22-02-2018 19:40:00 -0.7 C 3.42 g/m*3 -0.7 C 3.2 km/h
238 22-02-2018 19:45:00 -0.7 C 3.46 g/m*3 -0.7 C 0 km/h
239 22-02-2018 19:50:00 -0.7 C 3.51 g/m*3 -0.7 C 0 km/h
240 22-02-2018 19:55:00 -0.8 C 3.48 g/m*3 -0.8 C 0 km/h
241 22-02-2018 20:00:00 -0.9 C 3.51 g/m*3 -0.9 C 1.6 km/h
242 22-02-2018 20:05:00 -0.9 C 3.51 g/m*3 -0.9 C 3.2 km/h
243 22-02-2018 20:10:00 -1 C 3.44 g/m*3 -1 C 0 km/h
244 22-02-2018 20:15:00 -1 C 3.39 g/m*3 -1 C 4.8 km/h
245 22-02-2018 20:20:00 -0.9 C 3.37 g/m*3 -3.22 C 6.4 km/h
246 22-02-2018 20:25:00 -0.8 C 3.39 g/m*3 -0.8 C 0 km/h
247 22-02-2018 20:30:00 -0.9 C 3.37 g/m*3 -0.9 C 0 km/h
248 22-02-2018 20:35:00 -0.9 C 3.32 g/m*3 -0.9 C 0 km/h
249 22-02-2018 20:40:00 -1 C 3.35 g/m*3 -1 C 0 km/h
250 22-02-2018 20:45:00 -1.1 C 3.41 g/m*3 -1.1 C 0 km/h
Sensor: Nr:Datum:Temp:Abs-Feuchte:Windchill:Wind:
Aussen-T/F 251 22-02-2018 20:50:00 -1.2 C 3.43 g/m*3 -1.2 C 0 km/h
252 22-02-2018 20:55:00 -1.2 C 3.43 g/m*3 -1.2 C 0 km/h
253 22-02-2018 21:00:00 -1.3 C 3.45 g/m*3 -1.3 C 0 km/h
254 22-02-2018 21:05:00 -1.3 C 3.41 g/m*3 -1.3 C 3.2 km/h
255 22-02-2018 21:10:00 -1.3 C 3.32 g/m*3 -6.23 C 16.1 km/h
256 22-02-2018 21:15:00 -1.1 C 3.32 g/m*3 -1.1 C 3.2 km/h
257 22-02-2018 21:20:00 -1 C 3.35 g/m*3 -1 C 1.6 km/h
258 22-02-2018 21:25:00 -1 C 3.35 g/m*3 -1 C 0 km/h
259 22-02-2018 21:30:00 -1.1 C 3.32 g/m*3 -1.1 C 0 km/h
260 22-02-2018 21:35:00 -1.1 C 3.32 g/m*3 -1.1 C 4.8 km/h
261 22-02-2018 21:40:00 -1.1 C 3.37 g/m*3 -1.1 C 3.2 km/h
262 22-02-2018 21:45:00 -1.2 C 3.34 g/m*3 -1.2 C 4.8 km/h
263 22-02-2018 21:50:00 -1.1 C 3.32 g/m*3 -1.1 C 4.8 km/h
264 22-02-2018 21:55:00 -1.1 C 3.32 g/m*3 -1.1 C 3.2 km/h
265 22-02-2018 22:00:00 -1 C 3.35 g/m*3 -1 C 3.2 km/h
266 22-02-2018 22:05:00 -1.1 C 3.37 g/m*3 -1.1 C 4.8 km/h
267 22-02-2018 22:10:00 -1.1 C 3.32 g/m*3 -1.1 C 4.8 km/h
268 22-02-2018 22:15:00 -1.1 C 3.37 g/m*3 -1.1 C 3.2 km/h
269 22-02-2018 22:20:00 -1.2 C 3.34 g/m*3 -1.2 C 4.8 km/h
270 22-02-2018 22:25:00 -1.2 C 3.34 g/m*3 -1.2 C 3.2 km/h
271 22-02-2018 22:30:00 -1.3 C 3.32 g/m*3 -1.3 C 3.2 km/h
272 22-02-2018 22:35:00 -1.2 C 3.3 g/m*3 -4.18 C 8.1 km/h
273 22-02-2018 22:40:00 -1.2 C 3.34 g/m*3 -3.57 C 6.4 km/h
274 22-02-2018 22:45:00 -1.2 C 3.34 g/m*3 -1.2 C 0 km/h
275 22-02-2018 22:50:00 -1.2 C 3.34 g/m*3 -1.2 C 3.2 km/h
Sensor: Nr:Datum:Temp:Abs-Feuchte:Windchill:Wind:
Aussen-T/F 276 22-02-2018 22:55:00 -1.3 C 3.28 g/m*3 -5.21 C 11.3 km/h
277 22-02-2018 23:00:00 -1.2 C 3.3 g/m*3 -1.2 C 1.6 km/h
278 22-02-2018 23:05:00 -1.2 C 3.34 g/m*3 -1.2 C 0 km/h
279 22-02-2018 23:10:00 -1.3 C 3.32 g/m*3 -1.3 C 1.6 km/h
280 22-02-2018 23:15:00 -1.3 C 3.32 g/m*3 -1.3 C 1.6 km/h
281 22-02-2018 23:20:00 -1.3 C 3.28 g/m*3 -1.3 C 3.2 km/h
282 22-02-2018 23:25:00 -1.3 C 3.32 g/m*3 -1.3 C 4.8 km/h
283 22-02-2018 23:30:00 -1.3 C 3.32 g/m*3 -1.3 C 3.2 km/h
284 22-02-2018 23:35:00 -1.3 C 3.23 g/m*3 -3.68 C 6.4 km/h
285 22-02-2018 23:40:00 -1.3 C 3.28 g/m*3 -1.3 C 3.2 km/h
286 22-02-2018 23:45:00 -1.3 C 3.28 g/m*3 -1.3 C 4.8 km/h
287 22-02-2018 23:50:00 -1.4 C 3.25 g/m*3 -1.4 C 3.2 km/h
288 22-02-2018 23:55:00 -1.4 C 3.3 g/m*3 -1.4 C 3.2 km/h
289 23-02-2018 00:00:00 -1.5 C 3.23 g/m*3 -3.91 C 6.4 km/h
290 23-02-2018 00:05:00 -1.4 C 3.3 g/m*3 -1.4 C 3.2 km/h
291 23-02-2018 00:10:00 -1.4 C 3.3 g/m*3 -1.4 C 3.2 km/h
292 23-02-2018 00:15:00 -1.4 C 3.3 g/m*3 -4.42 C 8.1 km/h
293 23-02-2018 00:20:00 -1.4 C 3.3 g/m*3 -1.4 C 1.6 km/h
294 23-02-2018 00:25:00 -1.4 C 3.3 g/m*3 -1.4 C 1.6 km/h
295 23-02-2018 00:30:00 -1.5 C 3.27 g/m*3 -1.5 C 0 km/h
296 23-02-2018 00:35:00 -1.7 C 3.27 g/m*3 -1.7 C 0 km/h
297 23-02-2018 00:40:00 -1.8 C 3.25 g/m*3 -1.8 C 0 km/h
298 23-02-2018 00:45:00 -1.8 C 3.25 g/m*3 -1.8 C 0 km/h
299 23-02-2018 00:50:00 -1.9 C 3.27 g/m*3 -1.9 C 3.2 km/h
300 23-02-2018 00:55:00 -1.9 C 3.23 g/m*3 -1.9 C 3.2 km/h
Sensor: Nr:Datum:Temp:Abs-Feuchte:Windchill:Wind:
Aussen-T/F 301 23-02-2018 01:00:00 -1.8 C 3.25 g/m*3 -1.8 C 1.6 km/h
302 23-02-2018 01:05:00 -1.8 C 3.29 g/m*3 -1.8 C 0 km/h
303 23-02-2018 01:10:00 -1.9 C 3.31 g/m*3 -1.9 C 3.2 km/h
304 23-02-2018 01:15:00 -2 C 3.25 g/m*3 -2 C 0 km/h
305 23-02-2018 01:20:00 -2.1 C 3.26 g/m*3 -2.1 C 3.2 km/h
306 23-02-2018 01:25:00 -2.2 C 3.24 g/m*3 -2.2 C 3.2 km/h
307 23-02-2018 01:30:00 -2.2 C 3.2 g/m*3 -2.2 C 1.6 km/h
308 23-02-2018 01:35:00 -2.2 C 3.24 g/m*3 -2.2 C 3.2 km/h
309 23-02-2018 01:40:00 -2.2 C 3.24 g/m*3 -4.72 C 6.4 km/h
310 23-02-2018 01:45:00 -2.2 C 3.2 g/m*3 -2.2 C 3.2 km/h
311 23-02-2018 01:50:00 -2.2 C 3.2 g/m*3 -4.72 C 6.4 km/h
312 23-02-2018 01:55:00 -2.2 C 3.2 g/m*3 -2.2 C 3.2 km/h
313 23-02-2018 02:00:00 -2.2 C 3.2 g/m*3 -5.86 C 9.7 km/h
314 23-02-2018 02:05:00 -1.9 C 3.23 g/m*3 -5.5 C 9.7 km/h
315 23-02-2018 02:10:00 -1.9 C 3.23 g/m*3 -1.9 C 4.8 km/h
316 23-02-2018 02:15:00 -2 C 3.2 g/m*3 -2 C 4.8 km/h
317 23-02-2018 02:20:00 -2.1 C 3.18 g/m*3 -2.1 C 3.2 km/h
318 23-02-2018 02:25:00 -2.1 C 3.18 g/m*3 -2.1 C 3.2 km/h
319 23-02-2018 02:30:00 -2.1 C 3.18 g/m*3 -2.1 C 1.6 km/h
320 23-02-2018 02:35:00 -2.1 C 3.18 g/m*3 -2.1 C 0 km/h
321 23-02-2018 02:40:00 -2.1 C 3.22 g/m*3 -2.1 C 0 km/h
322 23-02-2018 02:45:00 -2.2 C 3.16 g/m*3 -2.2 C 0 km/h
323 23-02-2018 02:50:00 -2.3 C 3.14 g/m*3 -2.3 C 3.2 km/h
324 23-02-2018 02:55:00 -2.3 C 3.18 g/m*3 -2.3 C 0 km/h
325 23-02-2018 03:00:00 -2.3 C 3.18 g/m*3 -4.84 C 6.4 km/h
Sensor: Nr:Datum:Temp:Abs-Feuchte:Windchill:Wind:
Aussen-T/F 326 23-02-2018 03:05:00 -2.3 C 3.18 g/m*3 -2.3 C 1.6 km/h
327 23-02-2018 03:10:00 -2.3 C 3.18 g/m*3 -2.3 C 3.2 km/h
328 23-02-2018 03:15:00 -2.3 C 3.14 g/m*3 -2.3 C 1.6 km/h
329 23-02-2018 03:20:00 -2.4 C 3.11 g/m*3 -2.4 C 3.2 km/h
330 23-02-2018 03:25:00 -2.3 C 3.1 g/m*3 -2.3 C 4.8 km/h
331 23-02-2018 03:30:00 -2.3 C 3.1 g/m*3 -5.98 C 9.7 km/h
332 23-02-2018 03:35:00 -2.1 C 3.1 g/m*3 -6.56 C 12.9 km/h
333 23-02-2018 03:40:00 -2 C 3.08 g/m*3 -4.49 C 6.4 km/h
334 23-02-2018 03:45:00 -1.9 C 3.06 g/m*3 -1.9 C 4.8 km/h
335 23-02-2018 03:50:00 -1.8 C 3.08 g/m*3 -5.81 C 11.3 km/h
336 23-02-2018 03:55:00 -1.8 C 3.08 g/m*3 -4.26 C 6.4 km/h
337 23-02-2018 04:00:00 -1.8 C 3.08 g/m*3 -1.8 C 3.2 km/h
338 23-02-2018 04:05:00 -1.8 C 3.08 g/m*3 -4.89 C 8.1 km/h
339 23-02-2018 04:10:00 -1.8 C 3.08 g/m*3 -4.89 C 8.1 km/h
340 23-02-2018 04:15:00 -1.8 C 3.04 g/m*3 -4.26 C 6.4 km/h
341 23-02-2018 04:20:00 -1.9 C 3.1 g/m*3 -1.9 C 1.6 km/h
342 23-02-2018 04:25:00 -2 C 3.08 g/m*3 -2 C 1.6 km/h
343 23-02-2018 04:30:00 -2.1 C 3.06 g/m*3 -2.1 C 4.8 km/h
344 23-02-2018 04:35:00 -2.1 C 3.06 g/m*3 -2.1 C 4.8 km/h
345 23-02-2018 04:40:00 -2.1 C 3.06 g/m*3 -5.74 C 9.7 km/h
346 23-02-2018 04:45:00 -2.1 C 3.01 g/m*3 -5.74 C 9.7 km/h
347 23-02-2018 04:50:00 -2 C 3.03 g/m*3 -2 C 4.8 km/h
348 23-02-2018 04:55:00 -2.1 C 3.06 g/m*3 -2.1 C 3.2 km/h
349 23-02-2018 05:00:00 -2.2 C 3.03 g/m*3 -2.2 C 3.2 km/h
350 23-02-2018 05:05:00 -2.3 C 2.97 g/m*3 -2.3 C 4.8 km/h
Sensor: Nr:Datum:Temp:Abs-Feuchte:Windchill:Wind:
Aussen-T/F 351 23-02-2018 05:10:00 -2.3 C 3.01 g/m*3 -2.3 C 3.2 km/h
352 23-02-2018 05:15:00 -2.2 C 2.99 g/m*3 -6.29 C 11.3 km/h
353 23-02-2018 05:20:00 -2.2 C 2.99 g/m*3 -2.2 C 3.2 km/h
354 23-02-2018 05:25:00 -2.2 C 2.99 g/m*3 -2.2 C 0 km/h
355 23-02-2018 05:30:00 -2.3 C 2.97 g/m*3 -5.47 C 8.1 km/h
356 23-02-2018 05:35:00 -2.3 C 3.01 g/m*3 -2.3 C 1.6 km/h
357 23-02-2018 05:40:00 -2.4 C 2.99 g/m*3 -2.4 C 3.2 km/h
358 23-02-2018 05:45:00 -2.5 C 2.97 g/m*3 -2.5 C 4.8 km/h
359 23-02-2018 05:50:00 -2.5 C 2.93 g/m*3 -2.5 C 4.8 km/h
360 23-02-2018 05:55:00 -2.6 C 2.95 g/m*3 -2.6 C 3.2 km/h
361 23-02-2018 06:00:00 -2.6 C 2.95 g/m*3 -2.6 C 1.6 km/h
362 23-02-2018 06:05:00 -2.6 C 2.95 g/m*3 -2.6 C 4.8 km/h
363 23-02-2018 06:10:00 -2.7 C 2.93 g/m*3 -5.3 C 6.4 km/h
364 23-02-2018 06:15:00 -2.8 C 2.99 g/m*3 -2.8 C 0 km/h
365 23-02-2018 06:20:00 -2.8 C 2.87 g/m*3 -2.8 C 4.8 km/h
366 23-02-2018 06:25:00 -2.8 C 2.91 g/m*3 -2.8 C 3.2 km/h
367 23-02-2018 06:30:00 -2.8 C 2.91 g/m*3 -2.8 C 3.2 km/h
368 23-02-2018 06:35:00 -2.9 C 2.93 g/m*3 -2.9 C 1.6 km/h
369 23-02-2018 06:40:00 -3.1 C 2.85 g/m*3 -3.1 C 1.6 km/h
370 23-02-2018 06:45:00 -3.1 C 2.85 g/m*3 -3.1 C 1.6 km/h
371 23-02-2018 06:50:00 -3.1 C 2.81 g/m*3 -3.1 C 3.2 km/h
372 23-02-2018 06:55:00 -3 C 2.87 g/m*3 -3 C 3.2 km/h
373 23-02-2018 07:00:00 -3.1 C 2.89 g/m*3 -3.1 C 3.2 km/h
374 23-02-2018 07:05:00 -3.2 C 2.87 g/m*3 -3.2 C 0 km/h
375 23-02-2018 07:10:00 -3.4 C 2.83 g/m*3 -3.4 C 3.2 km/h
Sensor: Nr:Datum:Temp:Abs-Feuchte:Windchill:Wind:
Aussen-T/F 376 23-02-2018 07:15:00 -3.4 C 2.83 g/m*3 -3.4 C 0 km/h
377 23-02-2018 07:20:00 -3.5 C 2.77 g/m*3 -3.5 C 3.2 km/h
378 23-02-2018 07:25:00 -3.4 C 2.79 g/m*3 -6.11 C 6.4 km/h
379 23-02-2018 07:30:00 -3.4 C 2.79 g/m*3 -3.4 C 3.2 km/h
380 23-02-2018 07:35:00 -3.3 C 2.73 g/m*3 -3.3 C 1.6 km/h
381 23-02-2018 07:40:00 -3.2 C 2.79 g/m*3 -3.2 C 0 km/h
382 23-02-2018 07:45:00 -3.2 C 2.75 g/m*3 -6.53 C 8.1 km/h
383 23-02-2018 07:50:00 -3.1 C 2.81 g/m*3 -3.1 C 3.2 km/h
384 23-02-2018 07:55:00 -3.1 C 2.81 g/m*3 -3.1 C 4.8 km/h
385 23-02-2018 08:00:00 -3.2 C 2.79 g/m*3 -3.2 C 1.6 km/h
386 23-02-2018 08:05:00 -3.3 C 2.81 g/m*3 -3.3 C 1.6 km/h
387 23-02-2018 08:10:00 -3.3 C 2.81 g/m*3 -6.65 C 8.1 km/h
388 23-02-2018 08:15:00 -3.3 C 2.85 g/m*3 -3.3 C 1.6 km/h
389 23-02-2018 08:20:00 -3.3 C 2.81 g/m*3 -3.3 C 4.8 km/h
390 23-02-2018 08:25:00 -3.2 C 2.79 g/m*3 -3.2 C 4.8 km/h
391 23-02-2018 08:30:00 -3.1 C 2.81 g/m*3 -3.1 C 4.8 km/h
392 23-02-2018 08:35:00 -2.9 C 2.77 g/m*3 -7.14 C 11.3 km/h
393 23-02-2018 08:40:00 -2.8 C 2.87 g/m*3 -2.8 C 1.6 km/h
394 23-02-2018 08:45:00 -2.8 C 2.83 g/m*3 -6.06 C 8.1 km/h
395 23-02-2018 08:50:00 -2.8 C 2.79 g/m*3 -6.06 C 8.1 km/h
396 23-02-2018 08:55:00 -2.7 C 2.81 g/m*3 -2.7 C 1.6 km/h
397 23-02-2018 09:00:00 -2.7 C 2.81 g/m*3 -2.7 C 4.8 km/h
398 23-02-2018 09:05:00 -2.7 C 2.81 g/m*3 -5.3 C 6.4 km/h
399 23-02-2018 09:10:00 -2.7 C 2.81 g/m*3 -2.7 C 4.8 km/h
400 23-02-2018 09:15:00 -2.5 C 2.77 g/m*3 -6.65 C 11.3 km/h
Sensor: Nr:Datum:Temp:Abs-Feuchte:Windchill:Wind:
Aussen-T/F 401 23-02-2018 09:20:00 -2.4 C 2.79 g/m*3 -5.59 C 8.1 km/h
402 23-02-2018 09:25:00 -2.3 C 2.77 g/m*3 -6.8 C 12.9 km/h
403 23-02-2018 09:30:00 -2.2 C 2.74 g/m*3 -6.68 C 12.9 km/h
404 23-02-2018 09:35:00 -2 C 2.74 g/m*3 -6.05 C 11.3 km/h
405 23-02-2018 09:40:00 -1.9 C 2.76 g/m*3 -5.5 C 9.7 km/h
406 23-02-2018 09:45:00 -1.8 C 2.78 g/m*3 -5.38 C 9.7 km/h
407 23-02-2018 09:50:00 -1.8 C 2.78 g/m*3 -5.38 C 9.7 km/h
408 23-02-2018 09:55:00 -1.7 C 2.76 g/m*3 -1.7 C 4.8 km/h
409 23-02-2018 10:00:00 -1.7 C 2.8 g/m*3 -4.15 C 6.4 km/h
410 23-02-2018 10:05:00 -1.7 C 2.84 g/m*3 -4.77 C 8.1 km/h
411 23-02-2018 10:10:00 -1.7 C 2.76 g/m*3 -1.7 C 4.8 km/h
412 23-02-2018 10:15:00 -1.6 C 2.82 g/m*3 -6.6 C 16.1 km/h
413 23-02-2018 10:20:00 -1.5 C 2.79 g/m*3 -4.53 C 8.1 km/h
414 23-02-2018 10:25:00 -1.4 C 2.81 g/m*3 -5.7 C 12.9 km/h
415 23-02-2018 10:30:00 -1.3 C 2.79 g/m*3 -5.58 C 12.9 km/h
416 23-02-2018 10:35:00 -1.2 C 2.81 g/m*3 -4.66 C 9.7 km/h
417 23-02-2018 10:40:00 -1.1 C 2.78 g/m*3 -4.55 C 9.7 km/h
418 23-02-2018 10:45:00 -0.9 C 2.87 g/m*3 -0.9 C 3.2 km/h
419 23-02-2018 10:50:00 -0.8 C 2.84 g/m*3 -3.11 C 6.4 km/h
420 23-02-2018 10:55:00 -0.7 C 2.82 g/m*3 -5.48 C 16.1 km/h
421 23-02-2018 11:00:00 -0.6 C 2.79 g/m*3 -5.36 C 16.1 km/h
422 23-02-2018 11:05:00 -0.5 C 2.76 g/m*3 -4.24 C 11.3 km/h
423 23-02-2018 11:10:00 -0.3 C 2.8 g/m*3 -0.3 C 4.8 km/h
424 23-02-2018 11:15:00 -0.2 C 2.77 g/m*3 -3.47 C 9.7 km/h
425 23-02-2018 11:20:00 0 C 2.81 g/m*3 -2.18 C 6.4 km/h
Sensor: Nr:Datum:Temp:Abs-Feuchte:Windchill:Wind:
Aussen-T/F 426 23-02-2018 11:25:00 0.2 C 2.75 g/m*3 -1.95 C 6.4 km/h
427 23-02-2018 11:30:00 0.3 C 2.82 g/m*3 -3.95 C 14.5 km/h
428 23-02-2018 11:35:00 0.3 C 2.82 g/m*3 0.3 C 4.8 km/h
429 23-02-2018 11:40:00 0.3 C 2.87 g/m*3 -1.84 C 6.4 km/h
430 23-02-2018 11:45:00 0.4 C 2.84 g/m*3 -2.76 C 9.7 km/h
431 23-02-2018 11:50:00 0.4 C 2.79 g/m*3 -2.76 C 9.7 km/h
432 23-02-2018 11:55:00 0.4 C 2.84 g/m*3 -3.16 C 11.3 km/h
433 23-02-2018 12:00:00 0.5 C 2.81 g/m*3 -2.64 C 9.7 km/h
434 23-02-2018 12:05:00 0.6 C 2.78 g/m*3 -3.58 C 14.5 km/h
435 23-02-2018 12:10:00 0.6 C 2.73 g/m*3 -4.38 C 19.3 km/h
436 23-02-2018 12:15:00 0.6 C 2.73 g/m*3 -3.58 C 14.5 km/h
437 23-02-2018 12:20:00 0.6 C 2.78 g/m*3 -3.87 C 16.1 km/h
438 23-02-2018 12:25:00 0.8 C 2.76 g/m*3 -3.34 C 14.5 km/h
439 23-02-2018 12:30:00 0.8 C 2.71 g/m*3 -2.67 C 11.3 km/h
440 23-02-2018 12:35:00 1 C 2.75 g/m*3 -3.38 C 16.1 km/h
441 23-02-2018 12:40:00 1.1 C 2.77 g/m*3 -2.66 C 12.9 km/h
442 23-02-2018 12:45:00 1.1 C 2.72 g/m*3 -3.75 C 19.3 km/h
443 23-02-2018 12:50:00 1.1 C 2.72 g/m*3 -3.98 C 20.9 km/h
444 23-02-2018 12:55:00 1.2 C 2.74 g/m*3 -3.63 C 19.3 km/h
445 23-02-2018 13:00:00 1.3 C 2.75 g/m*3 -3.73 C 20.9 km/h
446 23-02-2018 13:05:00 1.3 C 2.7 g/m*3 -1.69 C 9.7 km/h
447 23-02-2018 13:10:00 1.5 C 2.74 g/m*3 -1.45 C 9.7 km/h
448 23-02-2018 13:15:00 1.8 C 2.8 g/m*3 -1.09 C 9.7 km/h
449 23-02-2018 13:20:00 1.9 C 2.76 g/m*3 -2.75 C 19.3 km/h
450 23-02-2018 13:25:00 1.9 C 2.7 g/m*3 -2.75 C 19.3 km/h
Sensor: Nr:Datum:Temp:Abs-Feuchte:Windchill:Wind:
Aussen-T/F 451 23-02-2018 13:30:00 2 C 2.72 g/m*3 -1.86 C 14.5 km/h
452 23-02-2018 13:35:00 2.1 C 2.74 g/m*3 -2.71 C 20.9 km/h
453 23-02-2018 13:40:00 2.1 C 2.85 g/m*3 -2.71 C 20.9 km/h
454 23-02-2018 13:45:00 2.2 C 2.7 g/m*3 -2.37 C 19.3 km/h
455 23-02-2018 13:50:00 2.2 C 2.65 g/m*3 -2.59 C 20.9 km/h
456 23-02-2018 13:55:00 2.2 C 2.65 g/m*3 -1.32 C 12.9 km/h
457 23-02-2018 14:00:00 2.3 C 2.67 g/m*3 -1.76 C 16.1 km/h
458 23-02-2018 14:05:00 2.3 C 2.67 g/m*3 -1.76 C 16.1 km/h
459 23-02-2018 14:10:00 2.2 C 2.65 g/m*3 -2.79 C 22.5 km/h
460 23-02-2018 14:15:00 2.2 C 2.65 g/m*3 -2.59 C 20.9 km/h
461 23-02-2018 14:20:00 2.2 C 2.59 g/m*3 -1.62 C 14.5 km/h
462 23-02-2018 14:25:00 2.2 C 2.7 g/m*3 -1.32 C 12.9 km/h
463 23-02-2018 14:30:00 2.2 C 2.59 g/m*3 -2.98 C 24.1 km/h
464 23-02-2018 14:35:00 2.2 C 2.53 g/m*3 -2.98 C 24.1 km/h
465 23-02-2018 14:40:00 2.2 C 2.53 g/m*3 -2.59 C 20.9 km/h
466 23-02-2018 14:45:00 2.3 C 2.61 g/m*3 -1.49 C 14.5 km/h
467 23-02-2018 14:50:00 2.4 C 2.63 g/m*3 -0.37 C 9.7 km/h
468 23-02-2018 14:55:00 2.5 C 2.59 g/m*3 0.71 C 6.4 km/h
469 23-02-2018 15:00:00 2.6 C 2.6 g/m*3 -2.08 C 20.9 km/h
470 23-02-2018 15:05:00 2.7 C 2.68 g/m*3 -1.74 C 19.3 km/h
471 23-02-2018 15:10:00 2.8 C 2.7 g/m*3 -1.14 C 16.1 km/h
472 23-02-2018 15:15:00 2.8 C 2.64 g/m*3 0.1 C 9.7 km/h
473 23-02-2018 15:20:00 2.9 C 2.6 g/m*3 -0.46 C 12.9 km/h
474 23-02-2018 15:25:00 2.8 C 2.58 g/m*3 -2.02 C 22.5 km/h
475 23-02-2018 15:30:00 2.8 C 2.52 g/m*3 -1.83 C 20.9 km/h
Sensor: Nr:Datum:Temp:Abs-Feuchte:Windchill:Wind:
Aussen-T/F 476 23-02-2018 15:35:00 2.8 C 2.58 g/m*3 -0.26 C 11.3 km/h
477 23-02-2018 15:40:00 2.9 C 2.6 g/m*3 0.64 C 8.1 km/h
478 23-02-2018 15:45:00 3.1 C 2.63 g/m*3 0.1 C 11.3 km/h
479 23-02-2018 15:50:00 3.1 C 2.63 g/m*3 0.87 C 8.1 km/h
480 23-02-2018 15:55:00 3.2 C 2.65 g/m*3 1.51 C 6.4 km/h
481 23-02-2018 16:00:00 3.3 C 2.61 g/m*3 -0.99 C 19.3 km/h
482 23-02-2018 16:05:00 3.2 C 2.65 g/m*3 -0.65 C 16.1 km/h
483 23-02-2018 16:10:00 3.2 C 2.59 g/m*3 0.22 C 11.3 km/h
484 23-02-2018 16:15:00 3.2 C 2.65 g/m*3 -0.1 C 12.9 km/h
485 23-02-2018 16:20:00 3.2 C 2.65 g/m*3 -0.1 C 12.9 km/h
486 23-02-2018 16:25:00 3.2 C 2.77 g/m*3 0.22 C 11.3 km/h
487 23-02-2018 16:30:00 3.2 C 2.59 g/m*3 -0.1 C 12.9 km/h
488 23-02-2018 16:35:00 3.1 C 2.57 g/m*3 -0.77 C 16.1 km/h
489 23-02-2018 16:40:00 3.1 C 2.57 g/m*3 -0.51 C 14.5 km/h
490 23-02-2018 16:45:00 3 C 2.56 g/m*3 -0.63 C 14.5 km/h
491 23-02-2018 16:50:00 3.1 C 2.57 g/m*3 0.87 C 8.1 km/h
492 23-02-2018 16:55:00 3.1 C 2.57 g/m*3 -0.22 C 12.9 km/h
493 23-02-2018 17:00:00 3.1 C 2.57 g/m*3 0.87 C 8.1 km/h
494 23-02-2018 17:05:00 3.1 C 2.57 g/m*3 0.1 C 11.3 km/h
495 23-02-2018 17:10:00 3 C 2.56 g/m*3 0.34 C 9.7 km/h
496 23-02-2018 17:15:00 2.9 C 2.54 g/m*3 0.64 C 8.1 km/h
497 23-02-2018 17:20:00 2.9 C 2.6 g/m*3 -0.14 C 11.3 km/h
498 23-02-2018 17:25:00 2.8 C 2.7 g/m*3 -0.26 C 11.3 km/h
499 23-02-2018 17:30:00 2.7 C 2.68 g/m*3 0.94 C 6.4 km/h
500 23-02-2018 17:35:00 2.7 C 2.62 g/m*3 0.94 C 6.4 km/h
Sensor: Nr:Datum:Temp:Abs-Feuchte:Windchill:Wind:
Aussen-T/F 501 23-02-2018 17:40:00 2.7 C 2.68 g/m*3 2.7 C 3.2 km/h
502 23-02-2018 17:45:00 2.4 C 2.68 g/m*3 0.59 C 6.4 km/h
503 23-02-2018 17:50:00 2.1 C 2.69 g/m*3 -1.11 C 11.3 km/h
504 23-02-2018 17:55:00 1.8 C 2.69 g/m*3 1.8 C 4.8 km/h
505 23-02-2018 18:00:00 1.5 C 2.85 g/m*3 1.5 C 0 km/h
506 23-02-2018 18:05:00 1.1 C 2.87 g/m*3 1.1 C 0 km/h
507 23-02-2018 18:10:00 0.8 C 2.87 g/m*3 0.8 C 1.6 km/h
508 23-02-2018 18:15:00 0.5 C 2.86 g/m*3 0.5 C 0 km/h
509 23-02-2018 18:20:00 0.3 C 2.87 g/m*3 0.3 C 0 km/h
510 23-02-2018 18:25:00 0.2 C 2.95 g/m*3 0.2 C 0 km/h
511 23-02-2018 18:30:00 -0.1 C 2.89 g/m*3 -0.1 C 0 km/h
512 23-02-2018 18:35:00 -0.2 C 2.96 g/m*3 -0.2 C 0 km/h
513 23-02-2018 18:40:00 -0.4 C 3.06 g/m*3 -0.4 C 0 km/h
514 23-02-2018 18:45:00 -0.7 C 3 g/m*3 -0.7 C 0 km/h
515 23-02-2018 18:50:00 -0.8 C 2.8 g/m*3 -0.8 C 1.6 km/h
516 23-02-2018 18:55:00 -0.8 C 2.84 g/m*3 -0.8 C 1.6 km/h
517 23-02-2018 19:00:00 -0.8 C 2.93 g/m*3 -0.8 C 1.6 km/h
518 23-02-2018 19:05:00 -0.9 C 2.91 g/m*3 -0.9 C 1.6 km/h
519 23-02-2018 19:10:00 -0.9 C 2.91 g/m*3 -0.9 C 3.2 km/h
520 23-02-2018 19:15:00 -1 C 2.85 g/m*3 -1 C 4.8 km/h
521 23-02-2018 19:20:00 -1.1 C 2.69 g/m*3 -1.1 C 4.8 km/h
522 23-02-2018 19:25:00 -0.8 C 2.57 g/m*3 -0.8 C 4.8 km/h
523 23-02-2018 19:30:00 -0.7 C 2.63 g/m*3 -0.7 C 4.8 km/h
524 23-02-2018 19:35:00 -0.6 C 2.56 g/m*3 -2.88 C 6.4 km/h
525 23-02-2018 19:40:00 -0.6 C 2.6 g/m*3 -0.6 C 3.2 km/h
Sensor: Nr:Datum:Temp:Abs-Feuchte:Windchill:Wind:
Aussen-T/F 526 23-02-2018 19:45:00 -0.6 C 2.7 g/m*3 -0.6 C 4.8 km/h
527 23-02-2018 19:50:00 -0.8 C 2.66 g/m*3 -0.8 C 0 km/h
528 23-02-2018 19:55:00 -0.9 C 2.73 g/m*3 -0.9 C 0 km/h
529 23-02-2018 20:00:00 -1.1 C 2.69 g/m*3 -1.1 C 1.6 km/h
530 23-02-2018 20:05:00 -1.1 C 2.65 g/m*3 -1.1 C 3.2 km/h
531 23-02-2018 20:10:00 -1.1 C 2.51 g/m*3 -4.55 C 9.7 km/h
532 23-02-2018 20:15:00 -0.8 C 2.52 g/m*3 -3.71 C 8.1 km/h
533 23-02-2018 20:20:00 -0.8 C 2.61 g/m*3 -0.8 C 4.8 km/h
534 23-02-2018 20:25:00 -0.8 C 2.66 g/m*3 -0.8 C 1.6 km/h
535 23-02-2018 20:30:00 -1 C 2.71 g/m*3 -1 C 1.6 km/h
536 23-02-2018 20:35:00 -1.2 C 2.67 g/m*3 -1.2 C 3.2 km/h
537 23-02-2018 20:40:00 -1.3 C 2.66 g/m*3 -1.3 C 3.2 km/h
538 23-02-2018 20:45:00 -1.4 C 2.77 g/m*3 -1.4 C 3.2 km/h
539 23-02-2018 20:50:00 -1.6 C 2.64 g/m*3 -1.6 C 4.8 km/h
540 23-02-2018 20:55:00 -1.7 C 2.67 g/m*3 -1.7 C 3.2 km/h
541 23-02-2018 21:00:00 -1.6 C 2.51 g/m*3 -4.03 C 6.4 km/h
542 23-02-2018 21:05:00 -1.4 C 2.55 g/m*3 -1.4 C 1.6 km/h
543 23-02-2018 21:10:00 -1.3 C 2.48 g/m*3 -1.3 C 4.8 km/h
544 23-02-2018 21:15:00 -1.1 C 2.65 g/m*3 -1.1 C 4.8 km/h
545 23-02-2018 21:20:00 -1.2 C 2.54 g/m*3 -3.57 C 6.4 km/h
546 23-02-2018 21:25:00 -1.2 C 2.54 g/m*3 -1.2 C 1.6 km/h
547 23-02-2018 21:30:00 -1.2 C 2.54 g/m*3 -5.8 C 14.5 km/h
548 23-02-2018 21:35:00 -1.2 C 2.54 g/m*3 -1.2 C 4.8 km/h
549 23-02-2018 21:40:00 -1.2 C 2.5 g/m*3 -4.66 C 9.7 km/h
550 23-02-2018 21:45:00 -1.1 C 2.56 g/m*3 -4.06 C 8.1 km/h
Sensor: Nr:Datum:Temp:Abs-Feuchte:Windchill:Wind:
Aussen-T/F 551 23-02-2018 21:50:00 -1.2 C 2.63 g/m*3 -3.57 C 6.4 km/h
552 23-02-2018 21:55:00 -1.1 C 2.56 g/m*3 -5.34 C 12.9 km/h
553 23-02-2018 22:00:00 -1 C 2.53 g/m*3 -4.43 C 9.7 km/h
554 23-02-2018 22:05:00 -1.1 C 2.6 g/m*3 -3.45 C 6.4 km/h
555 23-02-2018 22:10:00 -1.1 C 2.6 g/m*3 -4.06 C 8.1 km/h
556 23-02-2018 22:15:00 -1.1 C 2.6 g/m*3 -5.98 C 16.1 km/h
557 23-02-2018 22:20:00 -1.2 C 2.63 g/m*3 -1.2 C 1.6 km/h
558 23-02-2018 22:25:00 -1.3 C 2.61 g/m*3 -3.68 C 6.4 km/h
559 23-02-2018 22:30:00 -1.3 C 2.66 g/m*3 -4.78 C 9.7 km/h
560 23-02-2018 22:35:00 -1.4 C 2.59 g/m*3 -1.4 C 4.8 km/h
561 23-02-2018 22:40:00 -1.4 C 2.68 g/m*3 -4.42 C 8.1 km/h
562 23-02-2018 22:45:00 -1.4 C 2.64 g/m*3 -3.8 C 6.4 km/h
563 23-02-2018 22:50:00 -1.5 C 2.62 g/m*3 -5.45 C 11.3 km/h
564 23-02-2018 22:55:00 -1.4 C 2.64 g/m*3 -5.33 C 11.3 km/h
565 23-02-2018 23:00:00 -1.4 C 2.64 g/m*3 -4.42 C 8.1 km/h
566 23-02-2018 23:05:00 -1.4 C 2.64 g/m*3 -1.4 C 4.8 km/h
567 23-02-2018 23:10:00 -1.6 C 2.64 g/m*3 -1.6 C 3.2 km/h
568 23-02-2018 23:15:00 -1.6 C 2.64 g/m*3 -1.6 C 3.2 km/h
569 23-02-2018 23:20:00 -1.7 C 2.67 g/m*3 -1.7 C 4.8 km/h
570 23-02-2018 23:25:00 -1.8 C 2.65 g/m*3 -1.8 C 3.2 km/h
571 23-02-2018 23:30:00 -1.9 C 2.67 g/m*3 -1.9 C 4.8 km/h
572 23-02-2018 23:35:00 -2 C 2.7 g/m*3 -2 C 3.2 km/h
573 23-02-2018 23:40:00 -2.1 C 2.72 g/m*3 -6.56 C 12.9 km/h
574 23-02-2018 23:45:00 -2.2 C 2.66 g/m*3 -5.86 C 9.7 km/h
575 23-02-2018 23:50:00 -2.2 C 2.74 g/m*3 -2.2 C 3.2 km/h
Sensor: Nr:Datum:Temp:Abs-Feuchte:Windchill:Wind:
Aussen-T/F 576 23-02-2018 23:55:00 -2.3 C 2.72 g/m*3 -2.3 C 3.2 km/h
577 24-02-2018 00:00:00 -2.4 C 2.75 g/m*3 -2.4 C 3.2 km/h
578 24-02-2018 00:05:00 -2.6 C 2.75 g/m*3 -2.6 C 1.6 km/h
579 24-02-2018 00:10:00 -2.8 C 2.71 g/m*3 -2.8 C 0 km/h
580 24-02-2018 00:15:00 -3 C 2.71 g/m*3 -3 C 0 km/h
581 24-02-2018 00:20:00 -3.2 C 2.71 g/m*3 -3.2 C 3.2 km/h
582 24-02-2018 00:25:00 -3.3 C 2.73 g/m*3 -3.3 C 1.6 km/h
583 24-02-2018 00:30:00 -3.3 C 2.69 g/m*3 -5.99 C 6.4 km/h
584 24-02-2018 00:35:00 -3.3 C 2.73 g/m*3 -5.99 C 6.4 km/h
585 24-02-2018 00:40:00 -3.3 C 2.73 g/m*3 -3.3 C 3.2 km/h
586 24-02-2018 00:45:00 -3.3 C 2.73 g/m*3 -5.99 C 6.4 km/h
587 24-02-2018 00:50:00 -3.3 C 2.69 g/m*3 -5.99 C 6.4 km/h
588 24-02-2018 00:55:00 -3.3 C 2.69 g/m*3 -3.3 C 1.6 km/h
589 24-02-2018 01:00:00 -3.2 C 2.71 g/m*3 -3.2 C 3.2 km/h
590 24-02-2018 01:05:00 -3.2 C 2.67 g/m*3 -5.88 C 6.4 km/h
591 24-02-2018 01:10:00 -3.2 C 2.67 g/m*3 -5.88 C 6.4 km/h
592 24-02-2018 01:15:00 -3.1 C 2.69 g/m*3 -3.1 C 3.2 km/h
593 24-02-2018 01:20:00 -3.2 C 2.71 g/m*3 -3.2 C 0 km/h
594 24-02-2018 01:25:00 -3.3 C 2.69 g/m*3 -3.3 C 1.6 km/h
595 24-02-2018 01:30:00 -3.6 C 2.67 g/m*3 -3.6 C 0 km/h
596 24-02-2018 01:35:00 -3.7 C 2.69 g/m*3 -3.7 C 4.8 km/h
597 24-02-2018 01:40:00 -3.8 C 2.67 g/m*3 -3.8 C 3.2 km/h
598 24-02-2018 01:45:00 -3.9 C 2.65 g/m*3 -3.9 C 4.8 km/h
599 24-02-2018 01:50:00 -3.9 C 2.65 g/m*3 -3.9 C 4.8 km/h
600 24-02-2018 01:55:00 -3.9 C 2.65 g/m*3 -3.9 C 4.8 km/h
Sensor: Nr:Datum:Temp:Abs-Feuchte:Windchill:Wind:
Aussen-T/F 601 24-02-2018 02:00:00 -3.8 C 2.67 g/m*3 -3.8 C 3.2 km/h
602 24-02-2018 02:05:00 -3.9 C 2.65 g/m*3 -3.9 C 3.2 km/h
603 24-02-2018 02:10:00 -3.9 C 2.65 g/m*3 -3.9 C 4.8 km/h
604 24-02-2018 02:15:00 -3.9 C 2.65 g/m*3 -3.9 C 1.6 km/h
605 24-02-2018 02:20:00 -4 C 2.63 g/m*3 -4 C 1.6 km/h
606 24-02-2018 02:25:00 -4.1 C 2.65 g/m*3 -4.1 C 3.2 km/h
607 24-02-2018 02:30:00 -4.2 C 2.63 g/m*3 -4.2 C 1.6 km/h
608 24-02-2018 02:35:00 -4.3 C 2.65 g/m*3 -4.3 C 0 km/h
609 24-02-2018 02:40:00 -4.5 C 2.61 g/m*3 -4.5 C 0 km/h
610 24-02-2018 02:45:00 -4.7 C 2.61 g/m*3 -4.7 C 0 km/h
611 24-02-2018 02:50:00 -4.7 C 2.57 g/m*3 -4.7 C 4.8 km/h
612 24-02-2018 02:55:00 -4.6 C 2.63 g/m*3 -4.6 C 0 km/h
613 24-02-2018 03:00:00 -4.7 C 2.57 g/m*3 -4.7 C 0 km/h
614 24-02-2018 03:05:00 -4.8 C 2.59 g/m*3 -4.8 C 0 km/h
615 24-02-2018 03:10:00 -4.9 C 2.61 g/m*3 -4.9 C 1.6 km/h
616 24-02-2018 03:15:00 -5.1 C 2.57 g/m*3 -5.1 C 0 km/h
617 24-02-2018 03:20:00 -5.2 C 2.58 g/m*3 -5.2 C 0 km/h
618 24-02-2018 03:25:00 -5.3 C 2.57 g/m*3 -5.3 C 0 km/h
619 24-02-2018 03:30:00 -5.3 C 2.57 g/m*3 -5.3 C 0 km/h
620 24-02-2018 03:35:00 -5.4 C 2.55 g/m*3 -5.4 C 0 km/h
621 24-02-2018 03:40:00 -5.4 C 2.55 g/m*3 -5.4 C 0 km/h
622 24-02-2018 03:45:00 -5.3 C 2.57 g/m*3 -5.3 C 0 km/h
623 24-02-2018 03:50:00 -5.3 C 2.57 g/m*3 -5.3 C 0 km/h
624 24-02-2018 03:55:00 -5.3 C 2.57 g/m*3 -5.3 C 0 km/h
625 24-02-2018 04:00:00 -5.3 C 2.57 g/m*3 -5.3 C 0 km/h
Sensor: Nr:Datum:Temp:Abs-Feuchte:Windchill:Wind:
Aussen-T/F 626 24-02-2018 04:05:00 -5.3 C 2.57 g/m*3 -5.3 C 0 km/h
627 24-02-2018 04:10:00 -5.3 C 2.57 g/m*3 -5.3 C 0 km/h
628 24-02-2018 04:15:00 -5.4 C 2.55 g/m*3 -5.4 C 0 km/h
629 24-02-2018 04:20:00 -5.4 C 2.55 g/m*3 -5.4 C 0 km/h
630 24-02-2018 04:25:00 -5.3 C 2.57 g/m*3 -5.3 C 3.2 km/h
631 24-02-2018 04:30:00 -5.3 C 2.57 g/m*3 -5.3 C 4.8 km/h
632 24-02-2018 04:35:00 -5.3 C 2.53 g/m*3 -5.3 C 3.2 km/h
633 24-02-2018 04:40:00 -5.2 C 2.55 g/m*3 -5.2 C 4.8 km/h
634 24-02-2018 04:45:00 -5.2 C 2.55 g/m*3 -5.2 C 3.2 km/h
635 24-02-2018 04:50:00 -5.2 C 2.52 g/m*3 -5.2 C 4.8 km/h
636 24-02-2018 04:55:00 -5 C 2.52 g/m*3 -7.96 C 6.4 km/h
637 24-02-2018 05:00:00 -4.9 C 2.54 g/m*3 -4.9 C 1.6 km/h
638 24-02-2018 05:05:00 -5 C 2.52 g/m*3 -5 C 3.2 km/h
639 24-02-2018 05:10:00 -5.1 C 2.5 g/m*3 -5.1 C 3.2 km/h
640 24-02-2018 05:15:00 -5.1 C 2.5 g/m*3 -5.1 C 0 km/h
641 24-02-2018 05:20:00 -5.1 C 2.47 g/m*3 -5.1 C 4.8 km/h
642 24-02-2018 05:25:00 -4.9 C 2.47 g/m*3 -7.84 C 6.4 km/h
643 24-02-2018 05:30:00 -4.8 C 2.49 g/m*3 -7.73 C 6.4 km/h
644 24-02-2018 05:35:00 -4.7 C 2.51 g/m*3 -8.3 C 8.1 km/h
645 24-02-2018 05:40:00 -4.7 C 2.51 g/m*3 -8.3 C 8.1 km/h
646 24-02-2018 05:45:00 -4.7 C 2.47 g/m*3 -4.7 C 3.2 km/h
647 24-02-2018 05:50:00 -4.7 C 2.47 g/m*3 -4.7 C 0 km/h
648 24-02-2018 05:55:00 -4.8 C 2.49 g/m*3 -4.8 C 1.6 km/h
649 24-02-2018 06:00:00 -4.9 C 2.47 g/m*3 -4.9 C 3.2 km/h
650 24-02-2018 06:05:00 -4.9 C 2.47 g/m*3 -4.9 C 4.8 km/h
Sensor: Nr:Datum:Temp:Abs-Feuchte:Windchill:Wind:
Aussen-T/F 651 24-02-2018 06:10:00 -5.1 C 2.47 g/m*3 -5.1 C 4.8 km/h
652 24-02-2018 06:15:00 -5.2 C 2.48 g/m*3 -5.2 C 3.2 km/h
653 24-02-2018 06:20:00 -5.2 C 2.48 g/m*3 -5.2 C 1.6 km/h
654 24-02-2018 06:25:00 -5.3 C 2.47 g/m*3 -5.3 C 4.8 km/h
655 24-02-2018 06:30:00 -5.3 C 2.47 g/m*3 -5.3 C 4.8 km/h
656 24-02-2018 06:35:00 -5.3 C 2.5 g/m*3 -5.3 C 0 km/h
657 24-02-2018 06:40:00 -5.5 C 2.46 g/m*3 -5.5 C 1.6 km/h
658 24-02-2018 06:45:00 -5.7 C 2.46 g/m*3 -5.7 C 0 km/h
659 24-02-2018 06:50:00 -5.8 C 2.44 g/m*3 -5.8 C 1.6 km/h
660 24-02-2018 06:55:00 -5.9 C 2.42 g/m*3 -5.9 C 3.2 km/h
661 24-02-2018 07:00:00 -5.9 C 2.46 g/m*3 -5.9 C 0 km/h
662 24-02-2018 07:05:00 -6.1 C 2.42 g/m*3 -6.1 C 0 km/h
663 24-02-2018 07:10:00 -6.1 C 2.42 g/m*3 -6.1 C 0 km/h
664 24-02-2018 07:15:00 -6.1 C 2.45 g/m*3 -6.1 C 0 km/h
665 24-02-2018 07:20:00 -6.1 C 2.45 g/m*3 -6.1 C 0 km/h
666 24-02-2018 07:25:00 -6.1 C 2.45 g/m*3 -6.1 C 0 km/h
667 24-02-2018 07:30:00 -6.1 C 2.45 g/m*3 -6.1 C 1.6 km/h
668 24-02-2018 07:35:00 -6 C 2.47 g/m*3 -6 C 1.6 km/h
669 24-02-2018 07:40:00 -5.9 C 2.46 g/m*3 -5.9 C 3.2 km/h
670 24-02-2018 07:45:00 -5.8 C 2.44 g/m*3 -5.8 C 1.6 km/h
671 24-02-2018 07:50:00 -5.8 C 2.44 g/m*3 -5.8 C 3.2 km/h
672 24-02-2018 07:55:00 -5.8 C 2.44 g/m*3 -5.8 C 1.6 km/h
673 24-02-2018 08:00:00 -5.8 C 2.44 g/m*3 -5.8 C 0 km/h
674 24-02-2018 08:05:00 -5.8 C 2.47 g/m*3 -5.8 C 0 km/h
675 24-02-2018 08:10:00 -5.8 C 2.47 g/m*3 -5.8 C 0 km/h
Sensor: Nr:Datum:Temp:Abs-Feuchte:Windchill:Wind:
Aussen-T/F 676 24-02-2018 08:15:00 -5.8 C 2.47 g/m*3 -5.8 C 0 km/h
677 24-02-2018 08:20:00 -5.8 C 2.47 g/m*3 -5.8 C 0 km/h
678 24-02-2018 08:25:00 -5.7 C 2.49 g/m*3 -5.7 C 4.8 km/h
679 24-02-2018 08:30:00 -5.6 C 2.48 g/m*3 -9.35 C 8.1 km/h
680 24-02-2018 08:35:00 -5.4 C 2.48 g/m*3 -5.4 C 1.6 km/h
681 24-02-2018 08:40:00 -5.3 C 2.53 g/m*3 -5.3 C 0 km/h
682 24-02-2018 08:45:00 -5.1 C 2.5 g/m*3 -8.77 C 8.1 km/h
683 24-02-2018 08:50:00 -4.9 C 2.54 g/m*3 -4.9 C 0 km/h
684 24-02-2018 08:55:00 -4.9 C 2.57 g/m*3 -4.9 C 0 km/h
685 24-02-2018 09:00:00 -4.8 C 2.52 g/m*3 -4.8 C 3.2 km/h
686 24-02-2018 09:05:00 -4.7 C 2.57 g/m*3 -4.7 C 1.6 km/h
687 24-02-2018 09:10:00 -4.6 C 2.59 g/m*3 -4.6 C 0 km/h
688 24-02-2018 09:15:00 -4.5 C 2.54 g/m*3 -4.5 C 0 km/h
689 24-02-2018 09:20:00 -4.4 C 2.6 g/m*3 -4.4 C 0 km/h
690 24-02-2018 09:25:00 -4.4 C 2.56 g/m*3 -4.4 C 1.6 km/h
691 24-02-2018 09:30:00 -4.2 C 2.56 g/m*3 -4.2 C 3.2 km/h
692 24-02-2018 09:35:00 -4.1 C 2.58 g/m*3 -4.1 C 0 km/h
693 24-02-2018 09:40:00 -3.9 C 2.65 g/m*3 -3.9 C 0 km/h
694 24-02-2018 09:45:00 -3.8 C 2.63 g/m*3 -3.8 C 0 km/h
695 24-02-2018 09:50:00 -3.8 C 2.63 g/m*3 -3.8 C 0 km/h
696 24-02-2018 09:55:00 -3.7 C 2.69 g/m*3 -3.7 C 0 km/h
697 24-02-2018 10:00:00 -3.7 C 2.65 g/m*3 -3.7 C 0 km/h
698 24-02-2018 10:05:00 -3.6 C 2.67 g/m*3 -3.6 C 0 km/h
699 24-02-2018 10:10:00 -3.4 C 2.6 g/m*3 -3.4 C 4.8 km/h
700 24-02-2018 10:15:00 -2.8 C 2.51 g/m*3 -7.02 C 11.3 km/h
Sensor: Nr:Datum:Temp:Abs-Feuchte:Windchill:Wind:
Aussen-T/F 701 24-02-2018 10:20:00 -2.5 C 2.48 g/m*3 -2.5 C 4.8 km/h
702 24-02-2018 10:25:00 -2.2 C 2.49 g/m*3 -2.2 C 3.2 km/h
703 24-02-2018 10:30:00 -2.1 C 2.55 g/m*3 -2.1 C 3.2 km/h
704 24-02-2018 10:35:00 -1.8 C 2.65 g/m*3 -1.8 C 4.8 km/h
705 24-02-2018 10:40:00 -1.7 C 2.63 g/m*3 -1.7 C 3.2 km/h
706 24-02-2018 10:45:00 -1.5 C 2.71 g/m*3 -1.5 C 4.8 km/h
707 24-02-2018 10:50:00 -1.3 C 2.61 g/m*3 -1.3 C 4.8 km/h
708 24-02-2018 10:55:00 -1.1 C 2.65 g/m*3 -4.55 C 9.7 km/h
709 24-02-2018 11:00:00 -0.8 C 2.57 g/m*3 -0.8 C 4.8 km/h
710 24-02-2018 11:05:00 -0.5 C 2.67 g/m*3 -0.5 C 4.8 km/h
711 24-02-2018 11:10:00 -0.3 C 2.66 g/m*3 -3.12 C 8.1 km/h
712 24-02-2018 11:15:00 0.1 C 2.59 g/m*3 -2.07 C 6.4 km/h
713 24-02-2018 11:20:00 0.3 C 2.62 g/m*3 -1.84 C 6.4 km/h
714 24-02-2018 11:25:00 0.6 C 2.58 g/m*3 -1.49 C 6.4 km/h
715 24-02-2018 11:30:00 0.8 C 2.56 g/m*3 -2.67 C 11.3 km/h
716 24-02-2018 11:35:00 0.9 C 2.68 g/m*3 0.9 C 4.8 km/h
717 24-02-2018 11:40:00 1.1 C 2.67 g/m*3 -2.31 C 11.3 km/h
718 24-02-2018 11:45:00 1.3 C 2.7 g/m*3 -0.68 C 6.4 km/h
719 24-02-2018 11:50:00 1.3 C 2.81 g/m*3 1.3 C 3.2 km/h
720 24-02-2018 11:55:00 1.4 C 2.61 g/m*3 -2.88 C 16.1 km/h
721 24-02-2018 12:00:00 1.6 C 2.65 g/m*3 -2.05 C 12.9 km/h
722 24-02-2018 12:05:00 1.8 C 2.74 g/m*3 -1.47 C 11.3 km/h
723 24-02-2018 12:10:00 1.9 C 2.7 g/m*3 -1.35 C 11.3 km/h
724 24-02-2018 12:15:00 2.1 C 2.69 g/m*3 -1.44 C 12.9 km/h
725 24-02-2018 12:20:00 2.2 C 2.7 g/m*3 -0.99 C 11.3 km/h
Sensor: Nr:Datum:Temp:Abs-Feuchte:Windchill:Wind:
Aussen-T/F 726 24-02-2018 12:25:00 2.3 C 2.78 g/m*3 -1.49 C 14.5 km/h
727 24-02-2018 12:30:00 2.6 C 2.72 g/m*3 -1.39 C 16.1 km/h
728 24-02-2018 12:35:00 2.7 C 2.74 g/m*3 0.4 C 8.1 km/h
729 24-02-2018 12:40:00 2.8 C 2.7 g/m*3 -0.59 C 12.9 km/h
730 24-02-2018 12:45:00 2.8 C 2.76 g/m*3 -0.59 C 12.9 km/h
731 24-02-2018 12:50:00 2.9 C 2.72 g/m*3 0.64 C 8.1 km/h
732 24-02-2018 12:55:00 2.9 C 2.72 g/m*3 -1.49 C 19.3 km/h
733 24-02-2018 13:00:00 2.9 C 2.89 g/m*3 -1.49 C 19.3 km/h
734 24-02-2018 13:05:00 3 C 2.79 g/m*3 -0.34 C 12.9 km/h
735 24-02-2018 13:10:00 3.2 C 2.83 g/m*3 -0.1 C 12.9 km/h
736 24-02-2018 13:15:00 3.3 C 2.79 g/m*3 -0.76 C 17.7 km/h
737 24-02-2018 13:20:00 3.2 C 2.71 g/m*3 -1.7 C 24.1 km/h
738 24-02-2018 13:25:00 3.1 C 2.75 g/m*3 -0.51 C 14.5 km/h
739 24-02-2018 13:30:00 3.1 C 2.75 g/m*3 -1.24 C 19.3 km/h
740 24-02-2018 13:35:00 3.2 C 2.83 g/m*3 -1.32 C 20.9 km/h
741 24-02-2018 13:40:00 3.3 C 2.85 g/m*3 0.02 C 12.9 km/h
742 24-02-2018 13:45:00 3.4 C 2.93 g/m*3 -1.26 C 22.5 km/h
743 24-02-2018 13:50:00 3.4 C 2.87 g/m*3 -1.44 C 24.1 km/h
744 24-02-2018 13:55:00 3.3 C 2.85 g/m*3 -1.74 C 25.7 km/h
745 24-02-2018 14:00:00 3.3 C 2.91 g/m*3 -1.39 C 22.5 km/h
746 24-02-2018 14:05:00 3.3 C 2.97 g/m*3 -0.76 C 17.7 km/h
747 24-02-2018 14:10:00 3.3 C 2.91 g/m*3 -1.74 C 25.7 km/h
748 24-02-2018 14:15:00 3.3 C 2.97 g/m*3 -0.26 C 14.5 km/h
749 24-02-2018 14:20:00 3.3 C 3.09 g/m*3 0.34 C 11.3 km/h
750 24-02-2018 14:25:00 3.3 C 3.03 g/m*3 -0.52 C 16.1 km/h
Sensor: Nr:Datum:Temp:Abs-Feuchte:Windchill:Wind:
Aussen-T/F 751 24-02-2018 14:30:00 3.2 C 3.07 g/m*3 0.58 C 9.7 km/h
752 24-02-2018 14:35:00 3.2 C 3.13 g/m*3 -1.7 C 24.1 km/h
753 24-02-2018 14:40:00 3.2 C 3.13 g/m*3 -1.32 C 20.9 km/h
754 24-02-2018 14:45:00 3.4 C 3.24 g/m*3 -0.4 C 16.1 km/h
755 24-02-2018 14:50:00 3.3 C 3.22 g/m*3 -1.19 C 20.9 km/h
756 24-02-2018 14:55:00 3.2 C 3.25 g/m*3 -1.7 C 24.1 km/h
757 24-02-2018 15:00:00 3.2 C 3.31 g/m*3 -1.87 C 25.7 km/h
758 24-02-2018 15:05:00 3.2 C 3.31 g/m*3 -0.89 C 17.7 km/h
759 24-02-2018 15:10:00 3.3 C 3.4 g/m*3 -0.26 C 14.5 km/h
760 24-02-2018 15:15:00 3.4 C 3.36 g/m*3 -1.26 C 22.5 km/h
761 24-02-2018 15:20:00 3.2 C 3.31 g/m*3 -1.51 C 22.5 km/h
762 24-02-2018 15:25:00 3.1 C 3.29 g/m*3 -1.83 C 24.1 km/h
763 24-02-2018 15:30:00 3.1 C 3.29 g/m*3 -1.64 C 22.5 km/h
764 24-02-2018 15:35:00 3.1 C 3.35 g/m*3 -1.24 C 19.3 km/h
765 24-02-2018 15:40:00 3.1 C 3.35 g/m*3 -0.77 C 16.1 km/h
766 24-02-2018 15:45:00 3.2 C 3.43 g/m*3 -0.39 C 14.5 km/h
767 24-02-2018 15:50:00 3.3 C 3.4 g/m*3 0.02 C 12.9 km/h
768 24-02-2018 15:55:00 3.2 C 3.25 g/m*3 -1.32 C 20.9 km/h
769 24-02-2018 16:00:00 2.9 C 3.19 g/m*3 -2.26 C 25.7 km/h
770 24-02-2018 16:05:00 2.8 C 3.23 g/m*3 -1.39 C 17.7 km/h
771 24-02-2018 16:10:00 2.6 C 3.13 g/m*3 -2.08 C 20.9 km/h
772 24-02-2018 16:15:00 2.4 C 3.08 g/m*3 -2.9 C 25.7 km/h
773 24-02-2018 16:20:00 2.3 C 3.06 g/m*3 -3.68 C 32.2 km/h
774 24-02-2018 16:25:00 2.3 C 3.01 g/m*3 -2.85 C 24.1 km/h
775 24-02-2018 16:30:00 2.3 C 3.01 g/m*3 -1.76 C 16.1 km/h
Sensor: Nr:Datum:Temp:Abs-Feuchte:Windchill:Wind:
Aussen-T/F 776 24-02-2018 16:35:00 2.3 C 3.01 g/m*3 -1.49 C 14.5 km/h
777 24-02-2018 16:40:00 2.3 C 2.95 g/m*3 -2.24 C 19.3 km/h
778 24-02-2018 16:45:00 2.3 C 2.95 g/m*3 -1.76 C 16.1 km/h
779 24-02-2018 16:50:00 2.5 C 2.99 g/m*3 -2.6 C 24.1 km/h
780 24-02-2018 16:55:00 2.5 C 2.99 g/m*3 -2.41 C 22.5 km/h
781 24-02-2018 17:00:00 2.6 C 3.01 g/m*3 -0.83 C 12.9 km/h
782 24-02-2018 17:05:00 2.3 C 2.95 g/m*3 -2.01 C 17.7 km/h
783 24-02-2018 17:10:00 2.1 C 2.97 g/m*3 -1.74 C 14.5 km/h
784 24-02-2018 17:15:00 2 C 2.95 g/m*3 -1.23 C 11.3 km/h
785 24-02-2018 17:20:00 1.9 C 2.87 g/m*3 -2.51 C 17.7 km/h
786 24-02-2018 17:25:00 1.8 C 2.85 g/m*3 -2.11 C 14.5 km/h
787 24-02-2018 17:30:00 1.6 C 2.87 g/m*3 -2.05 C 12.9 km/h
788 24-02-2018 17:35:00 1.4 C 2.88 g/m*3 -3.38 C 19.3 km/h
789 24-02-2018 17:40:00 1.3 C 2.86 g/m*3 -1.69 C 9.7 km/h
790 24-02-2018 17:45:00 1.1 C 2.87 g/m*3 -4.19 C 22.5 km/h
791 24-02-2018 17:50:00 0.8 C 2.87 g/m*3 -4.36 C 20.9 km/h
792 24-02-2018 17:55:00 0.7 C 2.85 g/m*3 -3.75 C 16.1 km/h
793 24-02-2018 18:00:00 0.5 C 2.86 g/m*3 0.5 C 4.8 km/h
794 24-02-2018 18:05:00 0.3 C 2.82 g/m*3 -4.99 C 20.9 km/h
795 24-02-2018 18:10:00 0.2 C 2.8 g/m*3 -4.08 C 14.5 km/h
796 24-02-2018 18:15:00 0.2 C 2.9 g/m*3 -3.4 C 11.3 km/h
797 24-02-2018 18:20:00 0.1 C 2.88 g/m*3 -2.07 C 6.4 km/h
798 24-02-2018 18:25:00 -0.1 C 2.84 g/m*3 -3.35 C 9.7 km/h
799 24-02-2018 18:30:00 -0.2 C 2.91 g/m*3 -3 C 8.1 km/h
800 24-02-2018 18:35:00 -0.2 C 2.91 g/m*3 -3.88 C 11.3 km/h
Sensor: Nr:Datum:Temp:Abs-Feuchte:Windchill:Wind:
Aussen-T/F 801 24-02-2018 18:40:00 -0.3 C 2.89 g/m*3 -4 C 11.3 km/h
802 24-02-2018 18:45:00 -0.3 C 2.89 g/m*3 -4.36 C 12.9 km/h
803 24-02-2018 18:50:00 -0.3 C 2.94 g/m*3 -3.12 C 8.1 km/h
804 24-02-2018 18:55:00 -0.3 C 2.94 g/m*3 -4 C 11.3 km/h
805 24-02-2018 19:00:00 -0.3 C 2.89 g/m*3 -0.3 C 3.2 km/h
806 24-02-2018 19:05:00 -0.4 C 2.87 g/m*3 -2.64 C 6.4 km/h
807 24-02-2018 19:10:00 -0.4 C 2.87 g/m*3 -3.71 C 9.7 km/h
808 24-02-2018 19:15:00 -0.3 C 2.89 g/m*3 -5.26 C 17.7 km/h
809 24-02-2018 19:20:00 -0.3 C 2.89 g/m*3 -3.12 C 8.1 km/h
810 24-02-2018 19:25:00 -0.3 C 2.89 g/m*3 -3.59 C 9.7 km/h
811 24-02-2018 19:30:00 -0.4 C 2.87 g/m*3 -2.64 C 6.4 km/h
812 24-02-2018 19:35:00 -0.4 C 2.92 g/m*3 -4.81 C 14.5 km/h
813 24-02-2018 19:40:00 -0.6 C 2.88 g/m*3 -0.6 C 4.8 km/h
814 24-02-2018 19:45:00 -0.6 C 2.88 g/m*3 -2.88 C 6.4 km/h
815 24-02-2018 19:50:00 -0.7 C 2.91 g/m*3 -0.7 C 3.2 km/h
816 24-02-2018 19:55:00 -0.7 C 2.77 g/m*3 -4.48 C 11.3 km/h
817 24-02-2018 20:00:00 -0.6 C 2.84 g/m*3 -2.88 C 6.4 km/h
818 24-02-2018 20:05:00 -0.6 C 2.84 g/m*3 -3.95 C 9.7 km/h
819 24-02-2018 20:10:00 -0.7 C 2.86 g/m*3 -3.59 C 8.1 km/h
820 24-02-2018 20:15:00 -0.7 C 2.82 g/m*3 -4.48 C 11.3 km/h
821 24-02-2018 20:20:00 -0.7 C 2.86 g/m*3 -0.7 C 4.8 km/h
822 24-02-2018 20:25:00 -0.8 C 2.75 g/m*3 -3.11 C 6.4 km/h
823 24-02-2018 20:30:00 -0.8 C 2.8 g/m*3 -0.8 C 3.2 km/h
824 24-02-2018 20:35:00 -0.8 C 2.75 g/m*3 -3.71 C 8.1 km/h
825 24-02-2018 20:40:00 -0.8 C 2.84 g/m*3 -4.97 C 12.9 km/h
Sensor: Nr:Datum:Temp:Abs-Feuchte:Windchill:Wind:
Aussen-T/F 826 24-02-2018 20:45:00 -0.7 C 2.72 g/m*3 -5.18 C 14.5 km/h
827 24-02-2018 20:50:00 -0.7 C 2.68 g/m*3 -4.07 C 9.7 km/h
828 24-02-2018 20:55:00 -0.7 C 2.68 g/m*3 -2.99 C 6.4 km/h
829 24-02-2018 21:00:00 -0.6 C 2.65 g/m*3 -3.95 C 9.7 km/h
830 24-02-2018 21:05:00 -0.6 C 2.6 g/m*3 -3.95 C 9.7 km/h
831 24-02-2018 21:10:00 -0.7 C 2.58 g/m*3 -5.48 C 16.1 km/h
832 24-02-2018 21:15:00 -0.7 C 2.63 g/m*3 -3.59 C 8.1 km/h
833 24-02-2018 21:20:00 -0.8 C 2.57 g/m*3 -4.97 C 12.9 km/h
834 24-02-2018 21:25:00 -0.8 C 2.52 g/m*3 -6.14 C 19.3 km/h
835 24-02-2018 21:30:00 -0.8 C 2.52 g/m*3 -4.19 C 9.7 km/h
836 24-02-2018 21:35:00 -0.9 C 2.59 g/m*3 -3.22 C 6.4 km/h
837 24-02-2018 21:40:00 -1.1 C 2.56 g/m*3 -5.67 C 14.5 km/h
838 24-02-2018 21:45:00 -1 C 2.58 g/m*3 -4.85 C 11.3 km/h
839 24-02-2018 21:50:00 -1 C 2.58 g/m*3 -5.55 C 14.5 km/h
840 24-02-2018 21:55:00 -0.9 C 2.55 g/m*3 -6.95 C 24.1 km/h
841 24-02-2018 22:00:00 -0.9 C 2.59 g/m*3 -3.83 C 8.1 km/h
842 24-02-2018 22:05:00 -1 C 2.58 g/m*3 -5.55 C 14.5 km/h
843 24-02-2018 22:10:00 -1.1 C 2.6 g/m*3 -4.55 C 9.7 km/h
844 24-02-2018 22:15:00 -1.2 C 2.54 g/m*3 -5.8 C 14.5 km/h
845 24-02-2018 22:20:00 -1.2 C 2.59 g/m*3 -6.39 C 17.7 km/h
846 24-02-2018 22:25:00 -1.2 C 2.54 g/m*3 -5.09 C 11.3 km/h
847 24-02-2018 22:30:00 -1.3 C 2.57 g/m*3 -1.3 C 3.2 km/h
848 24-02-2018 22:35:00 -1.4 C 2.55 g/m*3 -6.35 C 16.1 km/h
849 24-02-2018 22:40:00 -1.4 C 2.55 g/m*3 -6.64 C 17.7 km/h
850 24-02-2018 22:45:00 -1.4 C 2.46 g/m*3 -6.64 C 17.7 km/h
Sensor: Nr:Datum:Temp:Abs-Feuchte:Windchill:Wind:
Aussen-T/F 851 24-02-2018 22:50:00 -1.3 C 2.52 g/m*3 -3.68 C 6.4 km/h
852 24-02-2018 22:55:00 -1.4 C 2.46 g/m*3 -5.7 C 12.9 km/h
853 24-02-2018 23:00:00 -1.4 C 2.46 g/m*3 -4.9 C 9.7 km/h
854 24-02-2018 23:05:00 -1.4 C 2.46 g/m*3 -6.64 C 17.7 km/h
855 24-02-2018 23:10:00 -1.4 C 2.46 g/m*3 -5.33 C 11.3 km/h
856 24-02-2018 23:15:00 -1.4 C 2.51 g/m*3 -3.8 C 6.4 km/h
857 24-02-2018 23:20:00 -1.6 C 2.43 g/m*3 -5.95 C 12.9 km/h
858 24-02-2018 23:25:00 -1.6 C 2.47 g/m*3 -5.14 C 9.7 km/h
859 24-02-2018 23:30:00 -1.6 C 2.43 g/m*3 -5.57 C 11.3 km/h
860 24-02-2018 23:35:00 -1.7 C 2.5 g/m*3 -1.7 C 4.8 km/h
861 24-02-2018 23:40:00 -1.8 C 2.44 g/m*3 -4.89 C 8.1 km/h
862 24-02-2018 23:45:00 -1.8 C 2.48 g/m*3 -4.26 C 6.4 km/h
863 24-02-2018 23:50:00 -1.8 C 2.48 g/m*3 -5.38 C 9.7 km/h
864 24-02-2018 23:55:00 -1.9 C 2.46 g/m*3 -1.9 C 4.8 km/h
865 25-02-2018 00:00:00 -1.9 C 2.5 g/m*3 -5 C 8.1 km/h
866 25-02-2018 00:05:00 -2.1 C 2.47 g/m*3 -5.74 C 9.7 km/h
867 25-02-2018 00:10:00 -2.1 C 2.47 g/m*3 -6.9 C 14.5 km/h
868 25-02-2018 00:15:00 -2.1 C 2.47 g/m*3 -5.24 C 8.1 km/h
869 25-02-2018 00:20:00 -2.1 C 2.47 g/m*3 -6.17 C 11.3 km/h
870 25-02-2018 00:25:00 -2.1 C 2.51 g/m*3 -5.74 C 9.7 km/h
871 25-02-2018 00:30:00 -2.2 C 2.45 g/m*3 -7.64 C 17.7 km/h
872 25-02-2018 00:35:00 -2.2 C 2.45 g/m*3 -4.72 C 6.4 km/h
873 25-02-2018 00:40:00 -2.2 C 2.45 g/m*3 -6.68 C 12.9 km/h
874 25-02-2018 00:45:00 -2.2 C 2.49 g/m*3 -6.29 C 11.3 km/h
875 25-02-2018 00:50:00 -2.2 C 2.45 g/m*3 -6.68 C 12.9 km/h
Sensor: Nr:Datum:Temp:Abs-Feuchte:Windchill:Wind:
Aussen-T/F 876 25-02-2018 00:55:00 -2.3 C 2.52 g/m*3 -5.47 C 8.1 km/h
877 25-02-2018 01:00:00 -2.3 C 2.48 g/m*3 -5.98 C 9.7 km/h
878 25-02-2018 01:05:00 -2.4 C 2.46 g/m*3 -2.4 C 1.6 km/h
879 25-02-2018 01:10:00 -2.5 C 2.48 g/m*3 -2.5 C 1.6 km/h
880 25-02-2018 01:15:00 -2.6 C 2.42 g/m*3 -7.52 C 14.5 km/h
881 25-02-2018 01:20:00 -2.6 C 2.42 g/m*3 -6.77 C 11.3 km/h
882 25-02-2018 01:25:00 -2.6 C 2.46 g/m*3 -8.41 C 19.3 km/h
883 25-02-2018 01:30:00 -2.6 C 2.42 g/m*3 -5.83 C 8.1 km/h
884 25-02-2018 01:35:00 -2.6 C 2.46 g/m*3 -6.33 C 9.7 km/h
885 25-02-2018 01:40:00 -2.7 C 2.45 g/m*3 -5.3 C 6.4 km/h
886 25-02-2018 01:45:00 -2.7 C 2.45 g/m*3 -6.45 C 9.7 km/h
887 25-02-2018 01:50:00 -2.8 C 2.43 g/m*3 -6.06 C 8.1 km/h
888 25-02-2018 01:55:00 -2.8 C 2.43 g/m*3 -6.06 C 8.1 km/h
889 25-02-2018 02:00:00 -2.9 C 2.41 g/m*3 -7.53 C 12.9 km/h
890 25-02-2018 02:05:00 -2.9 C 2.41 g/m*3 -5.53 C 6.4 km/h
891 25-02-2018 02:10:00 -2.9 C 2.41 g/m*3 -6.18 C 8.1 km/h
892 25-02-2018 02:15:00 -3 C 2.4 g/m*3 -8.34 C 16.1 km/h
893 25-02-2018 02:20:00 -3 C 2.4 g/m*3 -8.01 C 14.5 km/h
894 25-02-2018 02:25:00 -3 C 2.44 g/m*3 -7.26 C 11.3 km/h
895 25-02-2018 02:30:00 -3.1 C 2.38 g/m*3 -5.76 C 6.4 km/h
896 25-02-2018 02:35:00 -3.2 C 2.36 g/m*3 -7.05 C 9.7 km/h
897 25-02-2018 02:40:00 -3.2 C 2.36 g/m*3 -9.16 C 19.3 km/h
898 25-02-2018 02:45:00 -3.2 C 2.36 g/m*3 -7.9 C 12.9 km/h
899 25-02-2018 02:50:00 -3.2 C 2.4 g/m*3 -6.53 C 8.1 km/h
900 25-02-2018 02:55:00 -3.3 C 2.42 g/m*3 -3.3 C 3.2 km/h
Sensor: Nr:Datum:Temp:Abs-Feuchte:Windchill:Wind:
Aussen-T/F 901 25-02-2018 03:00:00 -3.4 C 2.37 g/m*3 -6.77 C 8.1 km/h
902 25-02-2018 03:05:00 -3.5 C 2.39 g/m*3 -6.88 C 8.1 km/h
903 25-02-2018 03:10:00 -3.6 C 2.37 g/m*3 -7 C 8.1 km/h
904 25-02-2018 03:15:00 -3.6 C 2.37 g/m*3 -7 C 8.1 km/h
905 25-02-2018 03:20:00 -3.7 C 2.35 g/m*3 -3.7 C 4.8 km/h
906 25-02-2018 03:25:00 -3.7 C 2.35 g/m*3 -7.12 C 8.1 km/h
907 25-02-2018 03:30:00 -3.7 C 2.35 g/m*3 -8.51 C 12.9 km/h
908 25-02-2018 03:35:00 -3.8 C 2.34 g/m*3 -7.24 C 8.1 km/h
909 25-02-2018 03:40:00 -3.8 C 2.34 g/m*3 -9.33 C 16.1 km/h
910 25-02-2018 03:45:00 -3.8 C 2.37 g/m*3 -7.24 C 8.1 km/h
911 25-02-2018 03:50:00 -3.9 C 2.39 g/m*3 -3.9 C 1.6 km/h
912 25-02-2018 03:55:00 -4.1 C 2.36 g/m*3 -4.1 C 3.2 km/h
913 25-02-2018 04:00:00 -4.2 C 2.34 g/m*3 -4.2 C 3.2 km/h
914 25-02-2018 04:05:00 -4.3 C 2.33 g/m*3 -4.3 C 4.8 km/h
915 25-02-2018 04:10:00 -4.3 C 2.36 g/m*3 -4.3 C 4.8 km/h
916 25-02-2018 04:15:00 -4.3 C 2.33 g/m*3 -8.36 C 9.7 km/h
917 25-02-2018 04:20:00 -4.3 C 2.33 g/m*3 -7.15 C 6.4 km/h
918 25-02-2018 04:25:00 -4.2 C 2.34 g/m*3 -7.03 C 6.4 km/h
919 25-02-2018 04:30:00 -4.2 C 2.34 g/m*3 -4.2 C 3.2 km/h
920 25-02-2018 04:35:00 -4.3 C 2.36 g/m*3 -4.3 C 0 km/h
921 25-02-2018 04:40:00 -4.5 C 2.36 g/m*3 -4.5 C 3.2 km/h
922 25-02-2018 04:45:00 -4.6 C 2.35 g/m*3 -4.6 C 3.2 km/h
923 25-02-2018 04:50:00 -4.7 C 2.37 g/m*3 -4.7 C 1.6 km/h
924 25-02-2018 04:55:00 -4.8 C 2.35 g/m*3 -4.8 C 1.6 km/h
925 25-02-2018 05:00:00 -4.9 C 2.37 g/m*3 -4.9 C 3.2 km/h
Sensor: Nr:Datum:Temp:Abs-Feuchte:Windchill:Wind:
Aussen-T/F 926 25-02-2018 05:05:00 -4.9 C 2.33 g/m*3 -8.53 C 8.1 km/h
927 25-02-2018 05:10:00 -5 C 2.35 g/m*3 -5 C 0 km/h
928 25-02-2018 05:15:00 -5 C 2.35 g/m*3 -5 C 4.8 km/h
929 25-02-2018 05:20:00 -5 C 2.35 g/m*3 -9.67 C 11.3 km/h
930 25-02-2018 05:25:00 -4.9 C 2.33 g/m*3 -7.84 C 6.4 km/h
931 25-02-2018 05:30:00 -5 C 2.32 g/m*3 -7.96 C 6.4 km/h
932 25-02-2018 05:35:00 -5 C 2.32 g/m*3 -5 C 3.2 km/h
933 25-02-2018 05:40:00 -4.9 C 2.3 g/m*3 -9.55 C 11.3 km/h
934 25-02-2018 05:45:00 -4.9 C 2.33 g/m*3 -4.9 C 4.8 km/h
935 25-02-2018 05:50:00 -4.9 C 2.33 g/m*3 -9.07 C 9.7 km/h
936 25-02-2018 05:55:00 -5.1 C 2.3 g/m*3 -5.1 C 0 km/h
937 25-02-2018 06:00:00 -5.2 C 2.28 g/m*3 -8.19 C 6.4 km/h
938 25-02-2018 06:05:00 -5.2 C 2.28 g/m*3 -5.2 C 3.2 km/h
939 25-02-2018 06:10:00 -5.3 C 2.3 g/m*3 -9 C 8.1 km/h
940 25-02-2018 06:15:00 -5.3 C 2.27 g/m*3 -10.03 C 11.3 km/h
941 25-02-2018 06:20:00 -5.3 C 2.27 g/m*3 -5.3 C 1.6 km/h
942 25-02-2018 06:25:00 -5.4 C 2.28 g/m*3 -5.4 C 3.2 km/h
943 25-02-2018 06:30:00 -5.5 C 2.23 g/m*3 -10.7 C 12.9 km/h
944 25-02-2018 06:35:00 -5.5 C 2.27 g/m*3 -5.5 C 3.2 km/h
945 25-02-2018 06:40:00 -5.6 C 2.25 g/m*3 -10.39 C 11.3 km/h
946 25-02-2018 06:45:00 -5.5 C 2.23 g/m*3 -11.08 C 14.5 km/h
947 25-02-2018 06:50:00 -5.4 C 2.22 g/m*3 -5.4 C 3.2 km/h
948 25-02-2018 06:55:00 -5.4 C 2.22 g/m*3 -5.4 C 4.8 km/h
949 25-02-2018 07:00:00 -5.4 C 2.25 g/m*3 -5.4 C 4.8 km/h
950 25-02-2018 07:05:00 -5.5 C 2.23 g/m*3 -5.5 C 3.2 km/h
Sensor: Nr:Datum:Temp:Abs-Feuchte:Windchill:Wind:
Aussen-T/F 951 25-02-2018 07:10:00 -5.7 C 2.23 g/m*3 -5.7 C 1.6 km/h
952 25-02-2018 07:15:00 -5.8 C 2.22 g/m*3 -5.8 C 3.2 km/h
953 25-02-2018 07:20:00 -5.8 C 2.22 g/m*3 -5.8 C 1.6 km/h
954 25-02-2018 07:25:00 -5.9 C 2.23 g/m*3 -10.75 C 11.3 km/h
955 25-02-2018 07:30:00 -5.8 C 2.25 g/m*3 -11.81 C 16.1 km/h
956 25-02-2018 07:35:00 -5.9 C 2.2 g/m*3 -5.9 C 3.2 km/h
957 25-02-2018 07:40:00 -5.9 C 2.23 g/m*3 -10.27 C 9.7 km/h
958 25-02-2018 07:45:00 -5.9 C 2.23 g/m*3 -5.9 C 1.6 km/h
959 25-02-2018 07:50:00 -5.9 C 2.2 g/m*3 -5.9 C 4.8 km/h
960 25-02-2018 07:55:00 -5.9 C 2.23 g/m*3 -5.9 C 0 km/h
961 25-02-2018 08:00:00 -5.9 C 2.27 g/m*3 -5.9 C 0 km/h
962 25-02-2018 08:05:00 -6 C 2.25 g/m*3 -6 C 0 km/h
963 25-02-2018 08:10:00 -6 C 2.22 g/m*3 -9.11 C 6.4 km/h
964 25-02-2018 08:15:00 -5.9 C 2.23 g/m*3 -5.9 C 4.8 km/h
965 25-02-2018 08:20:00 -5.9 C 2.23 g/m*3 -5.9 C 1.6 km/h
966 25-02-2018 08:25:00 -5.9 C 2.23 g/m*3 -5.9 C 3.2 km/h
967 25-02-2018 08:30:00 -5.9 C 2.23 g/m*3 -5.9 C 3.2 km/h
968 25-02-2018 08:35:00 -5.8 C 2.25 g/m*3 -8.88 C 6.4 km/h
969 25-02-2018 08:40:00 -5.8 C 2.25 g/m*3 -5.8 C 3.2 km/h
970 25-02-2018 08:45:00 -5.9 C 2.27 g/m*3 -5.9 C 1.6 km/h
971 25-02-2018 08:50:00 -5.8 C 2.25 g/m*3 -10.15 C 9.7 km/h
972 25-02-2018 08:55:00 -5.7 C 2.23 g/m*3 -5.7 C 3.2 km/h
973 25-02-2018 09:00:00 -5.5 C 2.27 g/m*3 -10.7 C 12.9 km/h
974 25-02-2018 09:05:00 -5.4 C 2.25 g/m*3 -9.12 C 8.1 km/h
975 25-02-2018 09:10:00 -5.4 C 2.25 g/m*3 -5.4 C 1.6 km/h
Sensor: Nr:Datum:Temp:Abs-Feuchte:Windchill:Wind:
Aussen-T/F 976 25-02-2018 09:15:00 -5.3 C 2.23 g/m*3 -9.55 C 9.7 km/h
977 25-02-2018 09:20:00 -5.2 C 2.22 g/m*3 -9.91 C 11.3 km/h
978 25-02-2018 09:25:00 -5.1 C 2.23 g/m*3 -8.77 C 8.1 km/h
979 25-02-2018 09:30:00 -5 C 2.21 g/m*3 -9.19 C 9.7 km/h
980 25-02-2018 09:35:00 -4.8 C 2.25 g/m*3 -4.8 C 4.8 km/h
981 25-02-2018 09:40:00 -4.8 C 2.21 g/m*3 -10.22 C 14.5 km/h
982 25-02-2018 09:45:00 -4.7 C 2.16 g/m*3 -9.31 C 11.3 km/h
983 25-02-2018 09:50:00 -4.6 C 2.21 g/m*3 -8.72 C 9.7 km/h
984 25-02-2018 09:55:00 -4.6 C 2.17 g/m*3 -9.98 C 14.5 km/h
985 25-02-2018 10:00:00 -4.5 C 2.19 g/m*3 -7.38 C 6.4 km/h
986 25-02-2018 10:05:00 -4.4 C 2.17 g/m*3 -9.36 C 12.9 km/h
987 25-02-2018 10:10:00 -4.3 C 2.18 g/m*3 -10.26 C 17.7 km/h
988 25-02-2018 10:15:00 -4.2 C 2.2 g/m*3 -7.71 C 8.1 km/h
989 25-02-2018 10:20:00 -4.2 C 2.16 g/m*3 -7.03 C 6.4 km/h
990 25-02-2018 10:25:00 -4.1 C 2.14 g/m*3 -9.7 C 16.1 km/h
991 25-02-2018 10:30:00 -4 C 2.16 g/m*3 -9.24 C 14.5 km/h
992 25-02-2018 10:35:00 -3.9 C 2.17 g/m*3 -3.9 C 4.8 km/h
993 25-02-2018 10:40:00 -3.8 C 2.19 g/m*3 -3.8 C 3.2 km/h
994 25-02-2018 10:45:00 -3.7 C 2.17 g/m*3 -6.46 C 6.4 km/h
995 25-02-2018 10:50:00 -3.6 C 2.22 g/m*3 -7.98 C 11.3 km/h
996 25-02-2018 10:55:00 -3.4 C 2.14 g/m*3 -9.13 C 17.7 km/h
997 25-02-2018 11:00:00 -3.3 C 2.15 g/m*3 -9.01 C 17.7 km/h
998 25-02-2018 11:05:00 -3.2 C 2.13 g/m*3 -5.88 C 6.4 km/h
999 25-02-2018 11:10:00 -2.9 C 2.18 g/m*3 -2.9 C 4.8 km/h
1000 25-02-2018 11:15:00 -2.8 C 2.15 g/m*3 -6.06 C 8.1 km/h
Sensor: Nr:Datum:Temp:Abs-Feuchte:Windchill:Wind:
Aussen-T/F 1001 25-02-2018 11:20:00 -2.7 C 2.05 g/m*3 -7.64 C 14.5 km/h
1002 25-02-2018 11:25:00 -2.6 C 2.1 g/m*3 -6.77 C 11.3 km/h
1003 25-02-2018 11:30:00 -2.5 C 2.12 g/m*3 -6.21 C 9.7 km/h
1004 25-02-2018 11:35:00 -2.4 C 2.09 g/m*3 -5.59 C 8.1 km/h
1005 25-02-2018 11:40:00 -2.4 C 2.05 g/m*3 -6.1 C 9.7 km/h
1006 25-02-2018 11:45:00 -2.3 C 2.02 g/m*3 -2.3 C 4.8 km/h
1007 25-02-2018 11:50:00 -2.3 C 2.02 g/m*3 -6.41 C 11.3 km/h
1008 25-02-2018 11:55:00 -2.2 C 2 g/m*3 -7.34 C 16.1 km/h
1009 25-02-2018 12:00:00 -2.2 C 2 g/m*3 -5.86 C 9.7 km/h
1010 25-02-2018 12:05:00 -2.2 C 1.95 g/m*3 -6.29 C 11.3 km/h
1011 25-02-2018 12:10:00 -2.1 C 1.93 g/m*3 -6.17 C 11.3 km/h
1012 25-02-2018 12:15:00 -1.9 C 1.91 g/m*3 -5.5 C 9.7 km/h
1013 25-02-2018 12:20:00 -1.8 C 1.92 g/m*3 -5.38 C 9.7 km/h
1014 25-02-2018 12:25:00 -1.7 C 1.94 g/m*3 -5.69 C 11.3 km/h
1015 25-02-2018 12:30:00 -1.5 C 1.96 g/m*3 -4.53 C 8.1 km/h
1016 25-02-2018 12:35:00 -1.3 C 2.04 g/m*3 -6.51 C 17.7 km/h
1017 25-02-2018 12:40:00 -1.2 C 1.92 g/m*3 -6.1 C 16.1 km/h
1018 25-02-2018 12:45:00 -1.2 C 1.87 g/m*3 -5.8 C 14.5 km/h
1019 25-02-2018 12:50:00 -1.2 C 1.87 g/m*3 -5.8 C 14.5 km/h
1020 25-02-2018 12:55:00 -1.1 C 1.93 g/m*3 -1.1 C 4.8 km/h
1021 25-02-2018 13:00:00 -0.9 C 1.87 g/m*3 -5.09 C 12.9 km/h
1022 25-02-2018 13:05:00 -1 C 1.85 g/m*3 -6.64 C 20.9 km/h
1023 25-02-2018 13:10:00 -0.9 C 1.87 g/m*3 -6.51 C 20.9 km/h
1024 25-02-2018 13:15:00 -0.8 C 1.88 g/m*3 -5.61 C 16.1 km/h
1025 25-02-2018 13:20:00 -0.7 C 1.89 g/m*3 -6.48 C 22.5 km/h
Sensor: Nr:Datum:Temp:Abs-Feuchte:Windchill:Wind:
Aussen-T/F 1026 25-02-2018 13:25:00 -0.7 C 1.85 g/m*3 -6.02 C 19.3 km/h
1027 25-02-2018 13:30:00 -0.6 C 1.86 g/m*3 -5.64 C 17.7 km/h
1028 25-02-2018 13:35:00 -0.5 C 1.83 g/m*3 -5.77 C 19.3 km/h
1029 25-02-2018 13:40:00 -0.6 C 1.81 g/m*3 -5.36 C 16.1 km/h
1030 25-02-2018 13:45:00 -0.6 C 1.72 g/m*3 -5.06 C 14.5 km/h
1031 25-02-2018 13:50:00 -0.6 C 1.67 g/m*3 -6.13 C 20.9 km/h
1032 25-02-2018 13:55:00 -0.5 C 1.68 g/m*3 -6.44 C 24.1 km/h
1033 25-02-2018 14:00:00 -0.6 C 1.63 g/m*3 -5.89 C 19.3 km/h
1034 25-02-2018 14:05:00 -0.6 C 1.72 g/m*3 -6.36 C 22.5 km/h
1035 25-02-2018 14:10:00 -0.4 C 1.7 g/m*3 -2.64 C 6.4 km/h
1036 25-02-2018 14:15:00 -0.3 C 1.66 g/m*3 -5.97 C 22.5 km/h
1037 25-02-2018 14:20:00 -0.6 C 1.58 g/m*3 -5.89 C 19.3 km/h
1038 25-02-2018 14:25:00 -0.5 C 1.64 g/m*3 -3.83 C 9.7 km/h
1039 25-02-2018 14:30:00 -0.4 C 1.74 g/m*3 -0.4 C 4.8 km/h
1040 25-02-2018 14:35:00 -0.3 C 1.66 g/m*3 -4.69 C 14.5 km/h
1041 25-02-2018 14:40:00 -0.3 C 1.57 g/m*3 -3.12 C 8.1 km/h
1042 25-02-2018 14:45:00 -0.2 C 1.58 g/m*3 -3 C 8.1 km/h
1043 25-02-2018 14:50:00 -0.2 C 1.62 g/m*3 -4.86 C 16.1 km/h
1044 25-02-2018 14:55:00 -0.2 C 1.58 g/m*3 -4.24 C 12.9 km/h
1045 25-02-2018 15:00:00 -0.2 C 1.53 g/m*3 -3.88 C 11.3 km/h
1046 25-02-2018 15:05:00 -0.1 C 1.54 g/m*3 -4.44 C 14.5 km/h
1047 25-02-2018 15:10:00 -0.1 C 1.64 g/m*3 -4.12 C 12.9 km/h
1048 25-02-2018 15:15:00 0.1 C 1.66 g/m*3 -5.01 C 19.3 km/h
1049 25-02-2018 15:20:00 0.1 C 1.56 g/m*3 -4.49 C 16.1 km/h
1050 25-02-2018 15:25:00 0.2 C 1.62 g/m*3 -5.12 C 20.9 km/h
Sensor: Nr:Datum:Temp:Abs-Feuchte:Windchill:Wind:
Aussen-T/F 1051 25-02-2018 15:30:00 0.2 C 1.67 g/m*3 -4.37 C 16.1 km/h
1052 25-02-2018 15:35:00 0.3 C 1.73 g/m*3 -3.63 C 12.9 km/h
1053 25-02-2018 15:40:00 0.3 C 1.63 g/m*3 -3.95 C 14.5 km/h
1054 25-02-2018 15:45:00 0.4 C 1.74 g/m*3 -3.83 C 14.5 km/h
1055 25-02-2018 15:50:00 0.5 C 1.81 g/m*3 -4.26 C 17.7 km/h
1056 25-02-2018 15:55:00 0.5 C 1.71 g/m*3 -4.95 C 22.5 km/h
1057 25-02-2018 16:00:00 0.4 C 1.69 g/m*3 -4.87 C 20.9 km/h
1058 25-02-2018 16:05:00 0.4 C 1.74 g/m*3 -3.51 C 12.9 km/h
1059 25-02-2018 16:10:00 0.4 C 1.79 g/m*3 -4.63 C 19.3 km/h
1060 25-02-2018 16:15:00 0.4 C 1.84 g/m*3 -3.16 C 11.3 km/h
1061 25-02-2018 16:20:00 0.4 C 1.79 g/m*3 -3.83 C 14.5 km/h
1062 25-02-2018 16:25:00 0.4 C 1.79 g/m*3 -4.39 C 17.7 km/h
1063 25-02-2018 16:30:00 0.3 C 1.78 g/m*3 -4.51 C 17.7 km/h
1064 25-02-2018 16:35:00 0.3 C 1.78 g/m*3 -4.51 C 17.7 km/h
1065 25-02-2018 16:40:00 0.1 C 1.71 g/m*3 -5.01 C 19.3 km/h
1066 25-02-2018 16:45:00 0.1 C 1.76 g/m*3 -3.88 C 12.9 km/h
1067 25-02-2018 16:50:00 0.1 C 1.71 g/m*3 -4.76 C 17.7 km/h
1068 25-02-2018 16:55:00 0.1 C 1.71 g/m*3 -4.2 C 14.5 km/h
1069 25-02-2018 17:00:00 0.1 C 1.76 g/m*3 -3.88 C 12.9 km/h
1070 25-02-2018 17:05:00 0.2 C 1.72 g/m*3 -2.53 C 8.1 km/h
1071 25-02-2018 17:10:00 0.1 C 1.76 g/m*3 -5.01 C 19.3 km/h
1072 25-02-2018 17:15:00 0.1 C 1.76 g/m*3 -4.49 C 16.1 km/h
1073 25-02-2018 17:20:00 0 C 1.7 g/m*3 -4.32 C 14.5 km/h
1074 25-02-2018 17:25:00 0.1 C 1.85 g/m*3 -3.12 C 9.7 km/h
1075 25-02-2018 17:30:00 0.2 C 1.82 g/m*3 -3 C 9.7 km/h
Sensor: Nr:Datum:Temp:Abs-Feuchte:Windchill:Wind:
Aussen-T/F 1076 25-02-2018 17:35:00 0.2 C 1.77 g/m*3 -3 C 9.7 km/h
1077 25-02-2018 17:40:00 0.1 C 1.9 g/m*3 -2.07 C 6.4 km/h
1078 25-02-2018 17:45:00 -0.1 C 1.78 g/m*3 -4.44 C 14.5 km/h
1079 25-02-2018 17:50:00 -0.3 C 1.76 g/m*3 -4.99 C 16.1 km/h
1080 25-02-2018 17:55:00 -0.5 C 1.78 g/m*3 -3.83 C 9.7 km/h
1081 25-02-2018 18:00:00 -0.7 C 1.8 g/m*3 -2.99 C 6.4 km/h
1082 25-02-2018 18:05:00 -0.9 C 1.87 g/m*3 -3.22 C 6.4 km/h
1083 25-02-2018 18:10:00 -1.2 C 1.87 g/m*3 -1.2 C 4.8 km/h
1084 25-02-2018 18:15:00 -1.4 C 1.85 g/m*3 -1.4 C 4.8 km/h
1085 25-02-2018 18:20:00 -1.5 C 1.83 g/m*3 -4.53 C 8.1 km/h
1086 25-02-2018 18:25:00 -1.6 C 1.78 g/m*3 -1.6 C 1.6 km/h
1087 25-02-2018 18:30:00 -1.7 C 1.76 g/m*3 -1.7 C 3.2 km/h
1088 25-02-2018 18:35:00 -1.7 C 1.85 g/m*3 -1.7 C 4.8 km/h
1089 25-02-2018 18:40:00 -1.8 C 1.84 g/m*3 -1.8 C 4.8 km/h
1090 25-02-2018 18:45:00 -1.7 C 1.81 g/m*3 -5.69 C 11.3 km/h
1091 25-02-2018 18:50:00 -1.7 C 1.76 g/m*3 -4.15 C 6.4 km/h
1092 25-02-2018 18:55:00 -1.7 C 1.85 g/m*3 -5.69 C 11.3 km/h
1093 25-02-2018 19:00:00 -1.7 C 1.76 g/m*3 -5.26 C 9.7 km/h
1094 25-02-2018 19:05:00 -1.7 C 1.76 g/m*3 -4.77 C 8.1 km/h
1095 25-02-2018 19:10:00 -1.7 C 1.85 g/m*3 -4.77 C 8.1 km/h
1096 25-02-2018 19:15:00 -1.8 C 1.71 g/m*3 -4.89 C 8.1 km/h
1097 25-02-2018 19:20:00 -1.7 C 1.72 g/m*3 -5.69 C 11.3 km/h
1098 25-02-2018 19:25:00 -1.7 C 1.68 g/m*3 -4.77 C 8.1 km/h
1099 25-02-2018 19:30:00 -1.7 C 1.64 g/m*3 -5.26 C 9.7 km/h
1100 25-02-2018 19:35:00 -1.7 C 1.68 g/m*3 -6.41 C 14.5 km/h
Sensor: Nr:Datum:Temp:Abs-Feuchte:Windchill:Wind:
Aussen-T/F 1101 25-02-2018 19:40:00 -1.7 C 1.72 g/m*3 -1.7 C 3.2 km/h
1102 25-02-2018 19:45:00 -1.8 C 1.71 g/m*3 -4.26 C 6.4 km/h
1103 25-02-2018 19:50:00 -1.8 C 1.8 g/m*3 -1.8 C 0 km/h
1104 25-02-2018 19:55:00 -1.9 C 1.7 g/m*3 -1.9 C 4.8 km/h
1105 25-02-2018 20:00:00 -1.9 C 1.7 g/m*3 -4.38 C 6.4 km/h
1106 25-02-2018 20:05:00 -2 C 1.73 g/m*3 -4.49 C 6.4 km/h
1107 25-02-2018 20:10:00 -2 C 1.69 g/m*3 -6.05 C 11.3 km/h
1108 25-02-2018 20:15:00 -1.9 C 1.74 g/m*3 -5.5 C 9.7 km/h
1109 25-02-2018 20:20:00 -2 C 1.73 g/m*3 -4.49 C 6.4 km/h
1110 25-02-2018 20:25:00 -2 C 1.73 g/m*3 -6.43 C 12.9 km/h
1111 25-02-2018 20:30:00 -1.9 C 1.7 g/m*3 -5.93 C 11.3 km/h
1112 25-02-2018 20:35:00 -1.9 C 1.7 g/m*3 -5.93 C 11.3 km/h
1113 25-02-2018 20:40:00 -1.9 C 1.83 g/m*3 -7.53 C 19.3 km/h
1114 25-02-2018 20:45:00 -2 C 1.81 g/m*3 -4.49 C 6.4 km/h
1115 25-02-2018 20:50:00 -2.1 C 1.8 g/m*3 -7.51 C 17.7 km/h
1116 25-02-2018 20:55:00 -2.2 C 1.83 g/m*3 -2.2 C 4.8 km/h
1117 25-02-2018 21:00:00 -2.2 C 1.87 g/m*3 -7.91 C 19.3 km/h
1118 25-02-2018 21:05:00 -2.2 C 1.83 g/m*3 -7.03 C 14.5 km/h
1119 25-02-2018 21:10:00 -2.3 C 1.9 g/m*3 -6.41 C 11.3 km/h
1120 25-02-2018 21:15:00 -2.3 C 1.9 g/m*3 -2.3 C 4.8 km/h
1121 25-02-2018 21:20:00 -2.4 C 1.97 g/m*3 -2.4 C 4.8 km/h
1122 25-02-2018 21:25:00 -2.5 C 1.95 g/m*3 -6.65 C 11.3 km/h
1123 25-02-2018 21:30:00 -2.5 C 1.95 g/m*3 -5.07 C 6.4 km/h
1124 25-02-2018 21:35:00 -2.4 C 1.97 g/m*3 -7.89 C 17.7 km/h
1125 25-02-2018 21:40:00 -2.5 C 1.99 g/m*3 -2.5 C 1.6 km/h
Sensor: Nr:Datum:Temp:Abs-Feuchte:Windchill:Wind:
Aussen-T/F 1126 25-02-2018 21:45:00 -2.6 C 2.02 g/m*3 -2.6 C 1.6 km/h
1127 25-02-2018 21:50:00 -2.7 C 2.05 g/m*3 -2.7 C 1.6 km/h
1128 25-02-2018 21:55:00 -2.8 C 2.03 g/m*3 -6.57 C 9.7 km/h
1129 25-02-2018 22:00:00 -2.8 C 2.03 g/m*3 -2.8 C 4.8 km/h
1130 25-02-2018 22:05:00 -2.8 C 2.03 g/m*3 -2.8 C 3.2 km/h
1131 25-02-2018 22:10:00 -2.7 C 2.09 g/m*3 -5.3 C 6.4 km/h
1132 25-02-2018 22:15:00 -2.7 C 2.13 g/m*3 -6.45 C 9.7 km/h
1133 25-02-2018 22:20:00 -2.7 C 2.09 g/m*3 -7.29 C 12.9 km/h
1134 25-02-2018 22:25:00 -2.6 C 2.06 g/m*3 -7.84 C 16.1 km/h
1135 25-02-2018 22:30:00 -2.6 C 2.1 g/m*3 -7.17 C 12.9 km/h
1136 25-02-2018 22:35:00 -2.6 C 2.06 g/m*3 -7.52 C 14.5 km/h
1137 25-02-2018 22:40:00 -2.6 C 2.06 g/m*3 -7.52 C 14.5 km/h
1138 25-02-2018 22:45:00 -2.6 C 2.1 g/m*3 -6.77 C 11.3 km/h
1139 25-02-2018 22:50:00 -2.6 C 2.1 g/m*3 -6.77 C 11.3 km/h
1140 25-02-2018 22:55:00 -2.7 C 2.09 g/m*3 -6.9 C 11.3 km/h
1141 25-02-2018 23:00:00 -2.7 C 2.13 g/m*3 -6.45 C 9.7 km/h
1142 25-02-2018 23:05:00 -2.7 C 2.09 g/m*3 -7.64 C 14.5 km/h
1143 25-02-2018 23:10:00 -2.7 C 2.09 g/m*3 -6.9 C 11.3 km/h
1144 25-02-2018 23:15:00 -2.8 C 2.07 g/m*3 -7.02 C 11.3 km/h
1145 25-02-2018 23:20:00 -2.8 C 2.11 g/m*3 -6.57 C 9.7 km/h
1146 25-02-2018 23:25:00 -2.8 C 2.11 g/m*3 -6.57 C 9.7 km/h
1147 25-02-2018 23:30:00 -2.9 C 2.1 g/m*3 -7.89 C 14.5 km/h
1148 25-02-2018 23:35:00 -2.9 C 2.14 g/m*3 -2.9 C 4.8 km/h
1149 25-02-2018 23:40:00 -2.9 C 2.14 g/m*3 -5.53 C 6.4 km/h
1150 25-02-2018 23:45:00 -3 C 2.16 g/m*3 -6.81 C 9.7 km/h
Sensor: Nr:Datum:Temp:Abs-Feuchte:Windchill:Wind:
Aussen-T/F 1151 25-02-2018 23:50:00 -3 C 2.12 g/m*3 -9.64 C 24.1 km/h
1152 25-02-2018 23:55:00 -3 C 2.16 g/m*3 -6.3 C 8.1 km/h
1153 26-02-2018 00:00:00 -3.1 C 2.15 g/m*3 -5.76 C 6.4 km/h
1154 26-02-2018 00:05:00 -3.1 C 2.18 g/m*3 -5.76 C 6.4 km/h
1155 26-02-2018 00:10:00 -3.1 C 2.18 g/m*3 -8.46 C 16.1 km/h
1156 26-02-2018 00:15:00 -3.2 C 2.13 g/m*3 -9.67 C 22.5 km/h
1157 26-02-2018 00:20:00 -3.2 C 2.17 g/m*3 -9.67 C 22.5 km/h
1158 26-02-2018 00:25:00 -3.2 C 2.17 g/m*3 -7.9 C 12.9 km/h
1159 26-02-2018 00:30:00 -3.3 C 2.15 g/m*3 -5.99 C 6.4 km/h
1160 26-02-2018 00:35:00 -3.3 C 2.19 g/m*3 -3.3 C 3.2 km/h
1161 26-02-2018 00:40:00 -3.4 C 2.18 g/m*3 -7.74 C 11.3 km/h
1162 26-02-2018 00:45:00 -3.4 C 2.18 g/m*3 -7.74 C 11.3 km/h
1163 26-02-2018 00:50:00 -3.5 C 2.16 g/m*3 -3.5 C 4.8 km/h
1164 26-02-2018 00:55:00 -3.6 C 2.18 g/m*3 -3.6 C 4.8 km/h
1165 26-02-2018 01:00:00 -3.7 C 2.17 g/m*3 -7.64 C 9.7 km/h
1166 26-02-2018 01:05:00 -3.8 C 2.19 g/m*3 -3.8 C 4.8 km/h
1167 26-02-2018 01:10:00 -4 C 2.19 g/m*3 -4 C 1.6 km/h
1168 26-02-2018 01:15:00 -4.2 C 2.2 g/m*3 -4.2 C 1.6 km/h
1169 26-02-2018 01:20:00 -4.3 C 2.22 g/m*3 -4.3 C 4.8 km/h
1170 26-02-2018 01:25:00 -4.5 C 2.19 g/m*3 -4.5 C 1.6 km/h
1171 26-02-2018 01:30:00 -4.6 C 2.21 g/m*3 -4.6 C 0 km/h
1172 26-02-2018 01:35:00 -4.7 C 2.19 g/m*3 -4.7 C 4.8 km/h
1173 26-02-2018 01:40:00 -4.8 C 2.18 g/m*3 -7.73 C 6.4 km/h
1174 26-02-2018 01:45:00 -4.8 C 2.21 g/m*3 -4.8 C 3.2 km/h
1175 26-02-2018 01:50:00 -4.7 C 2.19 g/m*3 -8.84 C 9.7 km/h
Sensor: Nr:Datum:Temp:Abs-Feuchte:Windchill:Wind:
Aussen-T/F 1176 26-02-2018 01:55:00 -4.7 C 2.23 g/m*3 -4.7 C 3.2 km/h
1177 26-02-2018 02:00:00 -4.8 C 2.21 g/m*3 -4.8 C 3.2 km/h
1178 26-02-2018 02:05:00 -4.8 C 2.25 g/m*3 -4.8 C 3.2 km/h
1179 26-02-2018 02:10:00 -4.9 C 2.26 g/m*3 -4.9 C 3.2 km/h
1180 26-02-2018 02:15:00 -5.1 C 2.23 g/m*3 -5.1 C 4.8 km/h
1181 26-02-2018 02:20:00 -5.1 C 2.23 g/m*3 -5.1 C 1.6 km/h
1182 26-02-2018 02:25:00 -5.1 C 2.23 g/m*3 -5.1 C 1.6 km/h
1183 26-02-2018 02:30:00 -5.1 C 2.26 g/m*3 -5.1 C 3.2 km/h
1184 26-02-2018 02:35:00 -5.2 C 2.25 g/m*3 -5.2 C 0 km/h
1185 26-02-2018 02:40:00 -5.4 C 2.25 g/m*3 -5.4 C 1.6 km/h
1186 26-02-2018 02:45:00 -5.5 C 2.27 g/m*3 -5.5 C 0 km/h
1187 26-02-2018 02:50:00 -5.6 C 2.25 g/m*3 -5.6 C 0 km/h
1188 26-02-2018 02:55:00 -5.7 C 2.27 g/m*3 -5.7 C 1.6 km/h
1189 26-02-2018 03:00:00 -5.8 C 2.28 g/m*3 -5.8 C 1.6 km/h
1190 26-02-2018 03:05:00 -5.8 C 2.31 g/m*3 -5.8 C 1.6 km/h
1191 26-02-2018 03:10:00 -5.8 C 2.31 g/m*3 -5.8 C 0 km/h
1192 26-02-2018 03:15:00 -5.9 C 2.3 g/m*3 -5.9 C 1.6 km/h
1193 26-02-2018 03:20:00 -6 C 2.31 g/m*3 -6 C 3.2 km/h
1194 26-02-2018 03:25:00 -6.1 C 2.3 g/m*3 -6.1 C 3.2 km/h
1195 26-02-2018 03:30:00 -6.1 C 2.33 g/m*3 -6.1 C 1.6 km/h
1196 26-02-2018 03:35:00 -6.2 C 2.31 g/m*3 -6.2 C 1.6 km/h
1197 26-02-2018 03:40:00 -6.3 C 2.32 g/m*3 -6.3 C 3.2 km/h
1198 26-02-2018 03:45:00 -6.3 C 2.32 g/m*3 -6.3 C 0 km/h
1199 26-02-2018 03:50:00 -6.3 C 2.35 g/m*3 -6.3 C 1.6 km/h
1200 26-02-2018 03:55:00 -6.4 C 2.34 g/m*3 -6.4 C 4.8 km/h
Sensor: Nr:Datum:Temp:Abs-Feuchte:Windchill:Wind:
Aussen-T/F 1201 26-02-2018 04:00:00 -6.4 C 2.34 g/m*3 -6.4 C 0 km/h
1202 26-02-2018 04:05:00 -6.3 C 2.35 g/m*3 -10.74 C 9.7 km/h
1203 26-02-2018 04:10:00 -6.3 C 2.35 g/m*3 -6.3 C 1.6 km/h
1204 26-02-2018 04:15:00 -6.2 C 2.34 g/m*3 -6.2 C 3.2 km/h
1205 26-02-2018 04:20:00 -6.2 C 2.34 g/m*3 -6.2 C 3.2 km/h
1206 26-02-2018 04:25:00 -6.2 C 2.34 g/m*3 -6.2 C 4.8 km/h
1207 26-02-2018 04:30:00 -6.2 C 2.34 g/m*3 -6.2 C 0 km/h
1208 26-02-2018 04:35:00 -6.2 C 2.31 g/m*3 -10.06 C 8.1 km/h
1209 26-02-2018 04:40:00 -6 C 2.34 g/m*3 -6 C 1.6 km/h
1210 26-02-2018 04:45:00 -6 C 2.31 g/m*3 -6 C 1.6 km/h
1211 26-02-2018 04:50:00 -6.1 C 2.33 g/m*3 -6.1 C 0 km/h
1212 26-02-2018 04:55:00 -6.2 C 2.31 g/m*3 -6.2 C 3.2 km/h
1213 26-02-2018 05:00:00 -6.2 C 2.28 g/m*3 -6.2 C 0 km/h
1214 26-02-2018 05:05:00 -6.2 C 2.28 g/m*3 -6.2 C 1.6 km/h
1215 26-02-2018 05:10:00 -6.3 C 2.26 g/m*3 -6.3 C 0 km/h
1216 26-02-2018 05:15:00 -6.4 C 2.28 g/m*3 -6.4 C 1.6 km/h
1217 26-02-2018 05:20:00 -6.5 C 2.29 g/m*3 -6.5 C 1.6 km/h
1218 26-02-2018 05:25:00 -6.6 C 2.27 g/m*3 -6.6 C 1.6 km/h
1219 26-02-2018 05:30:00 -6.7 C 2.26 g/m*3 -6.7 C 0 km/h
1220 26-02-2018 05:35:00 -6.8 C 2.24 g/m*3 -6.8 C 0 km/h
1221 26-02-2018 05:40:00 -6.9 C 2.25 g/m*3 -6.9 C 0 km/h
1222 26-02-2018 05:45:00 -6.9 C 2.25 g/m*3 -6.9 C 1.6 km/h
1223 26-02-2018 05:50:00 -6.9 C 2.25 g/m*3 -6.9 C 1.6 km/h
1224 26-02-2018 05:55:00 -6.9 C 2.25 g/m*3 -6.9 C 1.6 km/h
1225 26-02-2018 06:00:00 -7 C 2.24 g/m*3 -7 C 0 km/h
Sensor: Nr:Datum:Temp:Abs-Feuchte:Windchill:Wind:
Aussen-T/F 1226 26-02-2018 06:05:00 -7.1 C 2.25 g/m*3 -7.1 C 0 km/h
1227 26-02-2018 06:10:00 -7.1 C 2.25 g/m*3 -7.1 C 1.6 km/h
1228 26-02-2018 06:15:00 -7.1 C 2.22 g/m*3 -7.1 C 1.6 km/h
1229 26-02-2018 06:20:00 -7.2 C 2.23 g/m*3 -7.2 C 0 km/h
1230 26-02-2018 06:25:00 -7.2 C 2.23 g/m*3 -7.2 C 0 km/h
1231 26-02-2018 06:30:00 -7.2 C 2.23 g/m*3 -7.2 C 1.6 km/h
1232 26-02-2018 06:35:00 -7.2 C 2.23 g/m*3 -7.2 C 0 km/h
1233 26-02-2018 06:40:00 -7.2 C 2.23 g/m*3 -7.2 C 1.6 km/h
1234 26-02-2018 06:45:00 -7.2 C 2.23 g/m*3 -7.2 C 1.6 km/h
1235 26-02-2018 06:50:00 -7.2 C 2.23 g/m*3 -7.2 C 0 km/h
1236 26-02-2018 06:55:00 -7.3 C 2.25 g/m*3 -7.3 C 0 km/h
1237 26-02-2018 07:00:00 -7.3 C 2.25 g/m*3 -7.3 C 0 km/h
1238 26-02-2018 07:05:00 -7.3 C 2.25 g/m*3 -7.3 C 0 km/h
1239 26-02-2018 07:10:00 -7.3 C 2.25 g/m*3 -7.3 C 0 km/h
1240 26-02-2018 07:15:00 -7.3 C 2.25 g/m*3 -7.3 C 1.6 km/h
1241 26-02-2018 07:20:00 -7.4 C 2.23 g/m*3 -7.4 C 0 km/h
1242 26-02-2018 07:25:00 -7.4 C 2.23 g/m*3 -7.4 C 0 km/h
1243 26-02-2018 07:30:00 -7.4 C 2.23 g/m*3 -7.4 C 0 km/h
1244 26-02-2018 07:35:00 -7.4 C 2.23 g/m*3 -7.4 C 0 km/h
1245 26-02-2018 07:40:00 -7.4 C 2.23 g/m*3 -7.4 C 0 km/h
1246 26-02-2018 07:45:00 -7.4 C 2.23 g/m*3 -7.4 C 0 km/h
1247 26-02-2018 07:50:00 -7.4 C 2.26 g/m*3 -7.4 C 0 km/h
1248 26-02-2018 07:55:00 -7.5 C 2.24 g/m*3 -7.5 C 0 km/h
1249 26-02-2018 08:00:00 -7.5 C 2.24 g/m*3 -7.5 C 0 km/h
1250 26-02-2018 08:05:00 -7.5 C 2.27 g/m*3 -7.5 C 0 km/h
Sensor: Nr:Datum:Temp:Abs-Feuchte:Windchill:Wind:
Aussen-T/F 1251 26-02-2018 08:10:00 -7.6 C 2.25 g/m*3 -7.6 C 0 km/h
1252 26-02-2018 08:15:00 -7.6 C 2.25 g/m*3 -7.6 C 0 km/h
1253 26-02-2018 08:20:00 -7.5 C 2.3 g/m*3 -7.5 C 0 km/h
1254 26-02-2018 08:25:00 -7.4 C 2.32 g/m*3 -7.4 C 0 km/h
1255 26-02-2018 08:30:00 -7.3 C 2.33 g/m*3 -7.3 C 0 km/h
1256 26-02-2018 08:35:00 -7.3 C 2.3 g/m*3 -7.3 C 0 km/h
1257 26-02-2018 08:40:00 -7.2 C 2.32 g/m*3 -7.2 C 0 km/h
1258 26-02-2018 08:45:00 -7.1 C 2.34 g/m*3 -7.1 C 0 km/h
1259 26-02-2018 08:50:00 -6.9 C 2.37 g/m*3 -6.9 C 1.6 km/h
1260 26-02-2018 08:55:00 -6.7 C 2.41 g/m*3 -6.7 C 0 km/h
1261 26-02-2018 09:00:00 -6.5 C 2.44 g/m*3 -6.5 C 0 km/h
1262 26-02-2018 09:05:00 -6.2 C 2.47 g/m*3 -6.2 C 3.2 km/h
1263 26-02-2018 09:10:00 -5.9 C 2.46 g/m*3 -5.9 C 4.8 km/h
1264 26-02-2018 09:15:00 -5.6 C 2.48 g/m*3 -9.35 C 8.1 km/h
1265 26-02-2018 09:20:00 -5.4 C 2.45 g/m*3 -8.42 C 6.4 km/h
1266 26-02-2018 09:25:00 -5.3 C 2.47 g/m*3 -9 C 8.1 km/h
1267 26-02-2018 09:30:00 -5.2 C 2.45 g/m*3 -10.33 C 12.9 km/h
1268 26-02-2018 09:35:00 -5.1 C 2.47 g/m*3 -10.21 C 12.9 km/h
1269 26-02-2018 09:40:00 -5 C 2.49 g/m*3 -9.19 C 9.7 km/h
1270 26-02-2018 09:45:00 -4.9 C 2.5 g/m*3 -9.55 C 11.3 km/h
1271 26-02-2018 09:50:00 -4.9 C 2.5 g/m*3 -10.69 C 16.1 km/h
1272 26-02-2018 09:55:00 -4.9 C 2.5 g/m*3 -9.07 C 9.7 km/h
1273 26-02-2018 10:00:00 -4.8 C 2.52 g/m*3 -10.88 C 17.7 km/h
1274 26-02-2018 10:05:00 -4.8 C 2.52 g/m*3 -9.43 C 11.3 km/h
1275 26-02-2018 10:10:00 -4.8 C 2.56 g/m*3 -9.43 C 11.3 km/h
Sensor: Nr:Datum:Temp:Abs-Feuchte:Windchill:Wind:
Aussen-T/F 1276 26-02-2018 10:15:00 -4.7 C 2.54 g/m*3 -9.72 C 12.9 km/h
1277 26-02-2018 10:20:00 -4.4 C 2.56 g/m*3 -8.95 C 11.3 km/h
1278 26-02-2018 10:25:00 -4.3 C 2.54 g/m*3 -7.82 C 8.1 km/h
1279 26-02-2018 10:30:00 -4.1 C 2.54 g/m*3 -6.92 C 6.4 km/h
1280 26-02-2018 10:35:00 -3.8 C 2.56 g/m*3 -7.24 C 8.1 km/h
1281 26-02-2018 10:40:00 -3.6 C 2.52 g/m*3 -7.53 C 9.7 km/h
1282 26-02-2018 10:45:00 -3.3 C 2.46 g/m*3 -8.38 C 14.5 km/h
1283 26-02-2018 10:50:00 -3 C 2.47 g/m*3 -8.34 C 16.1 km/h
1284 26-02-2018 10:55:00 -2.8 C 2.51 g/m*3 -8.09 C 16.1 km/h
1285 26-02-2018 11:00:00 -2.9 C 2.41 g/m*3 -9.04 C 20.9 km/h
1286 26-02-2018 11:05:00 -3.1 C 2.38 g/m*3 -9.99 C 25.7 km/h
1287 26-02-2018 11:10:00 -3.2 C 2.36 g/m*3 -10.12 C 25.7 km/h
1288 26-02-2018 11:15:00 -3.2 C 2.4 g/m*3 -8.26 C 14.5 km/h
1289 26-02-2018 11:20:00 -3.2 C 2.44 g/m*3 -8.58 C 16.1 km/h
1290 26-02-2018 11:25:00 -3.2 C 2.44 g/m*3 -8.58 C 16.1 km/h
1291 26-02-2018 11:30:00 -3.1 C 2.42 g/m*3 -7.38 C 11.3 km/h
1292 26-02-2018 11:35:00 -3.1 C 2.34 g/m*3 -8.46 C 16.1 km/h
1293 26-02-2018 11:40:00 -2.9 C 2.33 g/m*3 -8.79 C 19.3 km/h
1294 26-02-2018 11:45:00 -2.6 C 2.38 g/m*3 -9.56 C 27.4 km/h
1295 26-02-2018 11:50:00 -2.7 C 2.69 g/m*3 -9.47 C 25.7 km/h
1296 26-02-2018 11:55:00 -3.1 C 2.69 g/m*3 -9.99 C 25.7 km/h
1297 26-02-2018 12:00:00 -3.2 C 2.63 g/m*3 -9.16 C 19.3 km/h
1298 26-02-2018 12:05:00 -3.3 C 2.61 g/m*3 -10.03 C 24.1 km/h
1299 26-02-2018 12:10:00 -3.3 C 2.61 g/m*3 -8.02 C 12.9 km/h
1300 26-02-2018 12:15:00 -3.3 C 2.58 g/m*3 -8.02 C 12.9 km/h
Sensor: Nr:Datum:Temp:Abs-Feuchte:Windchill:Wind:
Aussen-T/F 1301 26-02-2018 12:20:00 -3.1 C 2.5 g/m*3 -8.13 C 14.5 km/h
1302 26-02-2018 12:25:00 -2.8 C 2.43 g/m*3 -8.66 C 19.3 km/h
1303 26-02-2018 12:30:00 -2.7 C 2.33 g/m*3 -10.06 C 30.6 km/h
1304 26-02-2018 12:35:00 -2.6 C 2.3 g/m*3 -8.66 C 20.9 km/h
1305 26-02-2018 12:40:00 -2.3 C 2.31 g/m*3 -7.76 C 17.7 km/h
1306 26-02-2018 12:45:00 -2 C 2.36 g/m*3 -6.05 C 11.3 km/h
1307 26-02-2018 12:50:00 -2.1 C 2.34 g/m*3 -7.22 C 16.1 km/h
1308 26-02-2018 12:55:00 -2.2 C 2.37 g/m*3 -8.62 C 24.1 km/h
1309 26-02-2018 13:00:00 -2.1 C 2.34 g/m*3 -8.27 C 22.5 km/h
1310 26-02-2018 13:05:00 -1.9 C 2.33 g/m*3 -6.66 C 14.5 km/h
1311 26-02-2018 13:10:00 -1.8 C 2.35 g/m*3 -7.14 C 17.7 km/h
1312 26-02-2018 13:15:00 -1.9 C 2.33 g/m*3 -6.66 C 14.5 km/h
1313 26-02-2018 13:20:00 -1.9 C 2.38 g/m*3 -7.26 C 17.7 km/h
1314 26-02-2018 13:25:00 -1.9 C 2.38 g/m*3 -7.78 C 20.9 km/h
1315 26-02-2018 13:30:00 -2 C 2.4 g/m*3 -7.9 C 20.9 km/h
1316 26-02-2018 13:35:00 -2 C 2.49 g/m*3 -7.1 C 16.1 km/h
1317 26-02-2018 13:40:00 -2.1 C 2.6 g/m*3 -8.27 C 22.5 km/h
1318 26-02-2018 13:45:00 -2.2 C 2.58 g/m*3 -7.91 C 19.3 km/h
1319 26-02-2018 13:50:00 -2.2 C 2.58 g/m*3 -8.39 C 22.5 km/h
1320 26-02-2018 13:55:00 -2.3 C 2.48 g/m*3 -7.76 C 17.7 km/h
1321 26-02-2018 14:00:00 -2.2 C 2.49 g/m*3 -7.34 C 16.1 km/h
1322 26-02-2018 14:05:00 -2 C 2.44 g/m*3 -8.36 C 24.1 km/h
1323 26-02-2018 14:10:00 -1.8 C 2.44 g/m*3 -7.65 C 20.9 km/h
1324 26-02-2018 14:15:00 -1.7 C 2.45 g/m*3 -4.77 C 8.1 km/h
1325 26-02-2018 14:20:00 -1.4 C 2.37 g/m*3 -6.04 C 14.5 km/h
Sensor: Nr:Datum:Temp:Abs-Feuchte:Windchill:Wind:
Aussen-T/F 1326 26-02-2018 14:25:00 -1.4 C 2.29 g/m*3 -7.59 C 24.1 km/h
1327 26-02-2018 14:30:00 -1.4 C 2.29 g/m*3 -8 C 27.4 km/h
1328 26-02-2018 14:35:00 -1.5 C 2.23 g/m*3 -7.03 C 19.3 km/h
1329 26-02-2018 14:40:00 -1.6 C 2.25 g/m*3 -6.6 C 16.1 km/h
1330 26-02-2018 14:45:00 -1.5 C 2.23 g/m*3 -6.17 C 14.5 km/h
1331 26-02-2018 14:50:00 -1.5 C 2.27 g/m*3 -6.48 C 16.1 km/h
1332 26-02-2018 14:55:00 -1.6 C 2.25 g/m*3 -6.6 C 16.1 km/h
1333 26-02-2018 15:00:00 -1.6 C 2.21 g/m*3 -6.89 C 17.7 km/h
1334 26-02-2018 15:05:00 -1.5 C 2.27 g/m*3 -7.03 C 19.3 km/h
1335 26-02-2018 15:10:00 -1.5 C 2.23 g/m*3 -6.17 C 14.5 km/h
1336 26-02-2018 15:15:00 -1.6 C 2.25 g/m*3 -6.6 C 16.1 km/h
1337 26-02-2018 15:20:00 -1.8 C 2.31 g/m*3 -7.65 C 20.9 km/h
1338 26-02-2018 15:25:00 -1.8 C 2.39 g/m*3 -7.4 C 19.3 km/h
1339 26-02-2018 15:30:00 -1.8 C 2.44 g/m*3 -7.4 C 19.3 km/h
1340 26-02-2018 15:35:00 -1.9 C 2.46 g/m*3 -8.44 C 25.7 km/h
1341 26-02-2018 15:40:00 -2.1 C 2.39 g/m*3 -7.22 C 16.1 km/h
1342 26-02-2018 15:45:00 -2.1 C 2.39 g/m*3 -7.22 C 16.1 km/h
1343 26-02-2018 15:50:00 -2.1 C 2.34 g/m*3 -9.28 C 30.6 km/h
1344 26-02-2018 15:55:00 -2.1 C 2.34 g/m*3 -7.22 C 16.1 km/h
1345 26-02-2018 16:00:00 -2.1 C 2.34 g/m*3 -6.56 C 12.9 km/h
1346 26-02-2018 16:05:00 -2.1 C 2.26 g/m*3 -9.45 C 32.2 km/h
1347 26-02-2018 16:10:00 -2.2 C 2.29 g/m*3 -9.58 C 32.2 km/h
1348 26-02-2018 16:15:00 -2.1 C 2.26 g/m*3 -8.03 C 20.9 km/h
1349 26-02-2018 16:20:00 -2.1 C 2.26 g/m*3 -7.51 C 17.7 km/h
1350 26-02-2018 16:25:00 -2.1 C 2.22 g/m*3 -7.78 C 19.3 km/h
Sensor: Nr:Datum:Temp:Abs-Feuchte:Windchill:Wind:
Aussen-T/F 1351 26-02-2018 16:30:00 -2.1 C 2.18 g/m*3 -8.49 C 24.1 km/h
1352 26-02-2018 16:35:00 -2.2 C 2.12 g/m*3 -8.16 C 20.9 km/h
1353 26-02-2018 16:40:00 -2.2 C 2.16 g/m*3 -8.16 C 20.9 km/h
1354 26-02-2018 16:45:00 -2.3 C 2.15 g/m*3 -8.28 C 20.9 km/h
1355 26-02-2018 16:50:00 -2.2 C 2.16 g/m*3 -8.62 C 24.1 km/h
1356 26-02-2018 16:55:00 -2.1 C 2.22 g/m*3 -6.9 C 14.5 km/h
1357 26-02-2018 17:00:00 -1.8 C 2.22 g/m*3 -8.1 C 24.1 km/h
1358 26-02-2018 17:05:00 -1.9 C 2.25 g/m*3 -7.53 C 19.3 km/h
1359 26-02-2018 17:10:00 -2 C 2.19 g/m*3 -8.14 C 22.5 km/h
1360 26-02-2018 17:15:00 -2.1 C 2.18 g/m*3 -6.56 C 12.9 km/h
1361 26-02-2018 17:20:00 -2.1 C 2.13 g/m*3 -6.56 C 12.9 km/h
1362 26-02-2018 17:25:00 -2.2 C 2.16 g/m*3 -7.34 C 16.1 km/h
1363 26-02-2018 17:30:00 -2.2 C 2.2 g/m*3 -6.68 C 12.9 km/h
1364 26-02-2018 17:35:00 -2.3 C 2.31 g/m*3 -7.76 C 17.7 km/h
1365 26-02-2018 17:40:00 -2.4 C 2.34 g/m*3 -7.27 C 14.5 km/h
1366 26-02-2018 17:45:00 -2.6 C 2.26 g/m*3 -7.84 C 16.1 km/h
1367 26-02-2018 17:50:00 -2.6 C 2.3 g/m*3 -6.33 C 9.7 km/h
1368 26-02-2018 17:55:00 -2.6 C 2.3 g/m*3 -7.17 C 12.9 km/h
1369 26-02-2018 18:00:00 -2.7 C 2.29 g/m*3 -7.29 C 12.9 km/h
1370 26-02-2018 18:05:00 -2.7 C 2.25 g/m*3 -6.45 C 9.7 km/h
1371 26-02-2018 18:10:00 -2.8 C 2.23 g/m*3 -7.76 C 14.5 km/h
1372 26-02-2018 18:15:00 -2.8 C 2.23 g/m*3 -7.76 C 14.5 km/h
1373 26-02-2018 18:20:00 -2.8 C 2.27 g/m*3 -7.02 C 11.3 km/h
1374 26-02-2018 18:25:00 -2.9 C 2.29 g/m*3 -5.53 C 6.4 km/h
1375 26-02-2018 18:30:00 -2.9 C 2.29 g/m*3 -7.53 C 12.9 km/h
Sensor: Nr:Datum:Temp:Abs-Feuchte:Windchill:Wind:
Aussen-T/F 1376 26-02-2018 18:35:00 -2.9 C 2.33 g/m*3 -7.14 C 11.3 km/h
1377 26-02-2018 18:40:00 -2.9 C 2.41 g/m*3 -7.53 C 12.9 km/h
1378 26-02-2018 18:45:00 -3 C 2.4 g/m*3 -7.26 C 11.3 km/h
1379 26-02-2018 18:50:00 -3.1 C 2.46 g/m*3 -6.41 C 8.1 km/h
1380 26-02-2018 18:55:00 -3.2 C 2.44 g/m*3 -3.2 C 4.8 km/h
1381 26-02-2018 19:00:00 -3.4 C 2.44 g/m*3 -3.4 C 4.8 km/h
1382 26-02-2018 19:05:00 -3.5 C 2.43 g/m*3 -3.5 C 1.6 km/h
1383 26-02-2018 19:10:00 -3.6 C 2.45 g/m*3 -3.6 C 3.2 km/h
1384 26-02-2018 19:15:00 -3.6 C 2.48 g/m*3 -3.6 C 0 km/h
1385 26-02-2018 19:20:00 -3.7 C 2.47 g/m*3 -3.7 C 1.6 km/h
1386 26-02-2018 19:25:00 -3.7 C 2.5 g/m*3 -3.7 C 3.2 km/h
1387 26-02-2018 19:30:00 -3.8 C 2.52 g/m*3 -3.8 C 1.6 km/h
1388 26-02-2018 19:35:00 -3.8 C 2.52 g/m*3 -3.8 C 0 km/h
1389 26-02-2018 19:40:00 -3.8 C 2.52 g/m*3 -3.8 C 3.2 km/h
1390 26-02-2018 19:45:00 -3.7 C 2.54 g/m*3 -9.51 C 17.7 km/h
1391 26-02-2018 19:50:00 -3.6 C 2.6 g/m*3 -7 C 8.1 km/h
1392 26-02-2018 19:55:00 -3.5 C 2.62 g/m*3 -7.41 C 9.7 km/h
1393 26-02-2018 20:00:00 -3.5 C 2.65 g/m*3 -7.86 C 11.3 km/h
1394 26-02-2018 20:05:00 -3.6 C 2.63 g/m*3 -6.34 C 6.4 km/h
1395 26-02-2018 20:10:00 -3.7 C 2.62 g/m*3 -3.7 C 0 km/h
1396 26-02-2018 20:15:00 -3.8 C 2.63 g/m*3 -3.8 C 4.8 km/h
1397 26-02-2018 20:20:00 -3.9 C 2.62 g/m*3 -3.9 C 1.6 km/h
1398 26-02-2018 20:25:00 -4.1 C 2.62 g/m*3 -4.1 C 3.2 km/h
1399 26-02-2018 20:30:00 -4.2 C 2.63 g/m*3 -4.2 C 0 km/h
1400 26-02-2018 20:35:00 -4.2 C 2.67 g/m*3 -4.2 C 1.6 km/h
Sensor: Nr:Datum:Temp:Abs-Feuchte:Windchill:Wind:
Aussen-T/F 1401 26-02-2018 20:40:00 -4.3 C 2.65 g/m*3 -4.3 C 0 km/h
1402 26-02-2018 20:45:00 -4.3 C 2.65 g/m*3 -4.3 C 3.2 km/h
1403 26-02-2018 20:50:00 -4.3 C 2.69 g/m*3 -4.3 C 1.6 km/h
1404 26-02-2018 20:55:00 -4.3 C 2.69 g/m*3 -4.3 C 3.2 km/h
1405 26-02-2018 21:00:00 -4.2 C 2.67 g/m*3 -4.2 C 3.2 km/h
1406 26-02-2018 21:05:00 -4.1 C 2.65 g/m*3 -7.59 C 8.1 km/h
1407 26-02-2018 21:10:00 -3.9 C 2.69 g/m*3 -6.69 C 6.4 km/h
1408 26-02-2018 21:15:00 -3.8 C 2.63 g/m*3 -7.76 C 9.7 km/h
1409 26-02-2018 21:20:00 -3.7 C 2.65 g/m*3 -3.7 C 4.8 km/h
1410 26-02-2018 21:25:00 -3.7 C 2.62 g/m*3 -7.12 C 8.1 km/h
1411 26-02-2018 21:30:00 -3.7 C 2.62 g/m*3 -7.64 C 9.7 km/h
1412 26-02-2018 21:35:00 -3.6 C 2.63 g/m*3 -6.34 C 6.4 km/h
1413 26-02-2018 21:40:00 -3.6 C 2.6 g/m*3 -7 C 8.1 km/h
1414 26-02-2018 21:45:00 -3.5 C 2.62 g/m*3 -6.88 C 8.1 km/h
1415 26-02-2018 21:50:00 -3.5 C 2.62 g/m*3 -7.41 C 9.7 km/h
1416 26-02-2018 21:55:00 -3.5 C 2.62 g/m*3 -7.41 C 9.7 km/h
1417 26-02-2018 22:00:00 -3.5 C 2.62 g/m*3 -6.88 C 8.1 km/h
1418 26-02-2018 22:05:00 -3.5 C 2.62 g/m*3 -6.88 C 8.1 km/h
1419 26-02-2018 22:10:00 -3.5 C 2.62 g/m*3 -6.22 C 6.4 km/h
1420 26-02-2018 22:15:00 -3.5 C 2.62 g/m*3 -6.22 C 6.4 km/h
1421 26-02-2018 22:20:00 -3.5 C 2.62 g/m*3 -8.26 C 12.9 km/h
1422 26-02-2018 22:25:00 -3.5 C 2.65 g/m*3 -7.41 C 9.7 km/h
1423 26-02-2018 22:30:00 -3.5 C 2.65 g/m*3 -7.41 C 9.7 km/h
1424 26-02-2018 22:35:00 -3.6 C 2.67 g/m*3 -7.98 C 11.3 km/h
1425 26-02-2018 22:40:00 -3.6 C 2.71 g/m*3 -7.53 C 9.7 km/h
Sensor: Nr:Datum:Temp:Abs-Feuchte:Windchill:Wind:
Aussen-T/F 1426 26-02-2018 22:45:00 -3.6 C 2.75 g/m*3 -7.53 C 9.7 km/h
1427 26-02-2018 22:50:00 -3.6 C 2.75 g/m*3 -8.38 C 12.9 km/h
1428 26-02-2018 22:55:00 -3.6 C 2.79 g/m*3 -7.53 C 9.7 km/h
1429 26-02-2018 23:00:00 -3.7 C 2.8 g/m*3 -8.1 C 11.3 km/h
1430 26-02-2018 23:05:00 -3.7 C 2.84 g/m*3 -8.1 C 11.3 km/h
1431 26-02-2018 23:10:00 -3.8 C 2.93 g/m*3 -7.76 C 9.7 km/h
1432 26-02-2018 23:15:00 -3.9 C 2.95 g/m*3 -7.35 C 8.1 km/h
1433 26-02-2018 23:20:00 -4 C 3 g/m*3 -7.47 C 8.1 km/h
1434 26-02-2018 23:25:00 -4.1 C 3.01 g/m*3 -4.1 C 3.2 km/h
1435 26-02-2018 23:30:00 -4.1 C 3.05 g/m*3 -4.1 C 4.8 km/h
1436 26-02-2018 23:35:00 -4.2 C 3.07 g/m*3 -4.2 C 1.6 km/h
1437 26-02-2018 23:40:00 -4.2 C 3.07 g/m*3 -4.2 C 1.6 km/h
1438 26-02-2018 23:45:00 -4.2 C 3.07 g/m*3 -4.2 C 1.6 km/h
1439 26-02-2018 23:50:00 -4.2 C 3.1 g/m*3 -4.2 C 0 km/h
1440 26-02-2018 23:55:00 -4.2 C 3.1 g/m*3 -4.2 C 0 km/h

Legende:
   Min
   Max


Maximal/Minimal-Werte vom 22.02.2018 - 26.02.2018

Sensor Min Max Avg
Temp
(Aussen-T/F)
-7.6 °C
26-02-2018  08:10:00
3.9 °C
22-02-2018  13:50:00
-1.85 °C
Abs-Feuchte
(Aussen-T/F)
1.53 g/m*3
25-02-2018  15:00:00
3.83 g/m*3
22-02-2018  10:00:00
2.7 g/m*3
Windchill
(Aussen-T/F)
-11.81 C
25-02-2018  07:30:00
3.1 C
22-02-2018  17:20:00
-4.07 C

Die Daten stammen von einer Davis Vantage Pro 2 Wetter-Station und werden unter Linux mit der Software wview2wettercgi und aufbereitet. Alle Angaben erfolgen ohne Gewähr für ihre Vollständigkeit oder Richtigkeit.
Kontakt: Rainer Krienke krienke@uni-koblenz.de . Meine Webseiten an der Uni Koblenz oder privat.
Version: $Revision: 0.78 $